TAX310 VTBD-YBBN
Flight info
| Callsign | TAX310 |
|---|---|
| Flight time | 8h 23m |
| Altitude | 37000 |
| Route | GORSI3A GORSI N506 ELMOP R468 SAPEN/K0878F370 R468 TSH M768 MOXON/N0472F370 M768 LADOP/N0468F390 M768 DN J251 TN A464 UNVAT V327 IGUPI Y340 LAMUG Y177 SMOKA |
| Aircraft | A333/H-SDE3GHIJ2J3J5M1RVWXY/LB2D1 |
Departure
| Time | 2026-05-08 19:20 |
|---|---|
| Airport | Don Mueang International Airport (VTBD) |
Arrival
| Time | 2026-05-09 03:43 |
|---|---|
| Airport | Brisbane International Airport (YBBN) |
| Time | Latitude | Longitude | Altitude | Speed | Heading |
|---|---|---|---|---|---|
| 2026-05-08 19:12 | 13.91681 | 100.60367 | 25 ft | 4 kts | 296° |
| 2026-05-08 19:12 | 13.91668 | 100.60389 | 25 ft | 3 kts | 313° |
| 2026-05-08 19:12 | 13.91653 | 100.60401 | 25 ft | 3 kts | 341° |
| 2026-05-08 19:13 | 13.91634 | 100.60403 | 24 ft | 3 kts | 9° |
| 2026-05-08 19:13 | 13.91615 | 100.60397 | 26 ft | 4 kts | 33° |
| 2026-05-08 19:13 | 13.91599 | 100.60386 | 24 ft | 2 kts | 32° |
| 2026-05-08 19:13 | 13.91590 | 100.60381 | 25 ft | 1 kts | 32° |
| 2026-05-08 19:14 | 13.91585 | 100.60377 | 25 ft | 0 kts | 31° |
| 2026-05-08 19:14 | 13.91585 | 100.60378 | 25 ft | 0 kts | 31° |
| 2026-05-08 19:15 | 13.91586 | 100.60378 | 25 ft | 1 kts | 30° |
| 2026-05-08 19:15 | 13.91608 | 100.60394 | 25 ft | 8 kts | 39° |
| 2026-05-08 19:15 | 13.91633 | 100.60460 | 21 ft | 1 kts | 62° |
| 2026-05-08 19:16 | 13.91634 | 100.60462 | 21 ft | 1 kts | 58° |
| 2026-05-08 19:16 | 13.91643 | 100.60473 | 24 ft | 4 kts | 51° |
| 2026-05-08 19:16 | 13.91673 | 100.60504 | 21 ft | 8 kts | 40° |
| 2026-05-08 19:16 | 13.91729 | 100.60543 | 24 ft | 12 kts | 31° |
| 2026-05-08 19:17 | 13.91822 | 100.60595 | 22 ft | 19 kts | 28° |
| 2026-05-08 19:17 | 13.91958 | 100.60671 | 26 ft | 25 kts | 30° |
| 2026-05-08 19:17 | 13.92130 | 100.60767 | 24 ft | 31 kts | 30° |
| 2026-05-08 19:17 | 13.92330 | 100.60881 | 24 ft | 35 kts | 29° |
| 2026-05-08 19:18 | 13.92543 | 100.60997 | 26 ft | 28 kts | 29° |
| 2026-05-08 19:18 | 13.92621 | 100.61048 | 24 ft | 12 kts | 45° |
| 2026-05-08 19:18 | 13.92631 | 100.61126 | 23 ft | 12 kts | 112° |
| 2026-05-08 19:18 | 13.92572 | 100.61179 | 20 ft | 11 kts | 159° |
| 2026-05-08 19:19 | 13.92514 | 100.61170 | 21 ft | 8 kts | 202° |
| 2026-05-08 19:19 | 13.92364 | 100.61089 | 22 ft | 51 kts | 209° |
| 2026-05-08 19:19 | 13.91872 | 100.60811 | 24 ft | 109 kts | 208° |
| 2026-05-08 19:19 | 13.91050 | 100.60350 | 24 ft | 159 kts | 209° |
| 2026-05-08 19:20 | 13.89955 | 100.59761 | 276 ft | 186 kts | 213° |
| 2026-05-08 19:20 | 13.89227 | 100.59303 | 776 ft | 181 kts | 213° |
| 2026-05-08 19:20 | 13.87755 | 100.58409 | 1461 ft | 193 kts | 206° |
| 2026-05-08 19:20 | 13.86484 | 100.57838 | 1662 ft | 208 kts | 193° |
| 2026-05-08 19:21 | 13.85004 | 100.57824 | 1801 ft | 222 kts | 161° |
| 2026-05-08 19:21 | 13.83745 | 100.58777 | 1905 ft | 237 kts | 123° |
| 2026-05-08 19:21 | 13.82972 | 100.60345 | 2214 ft | 253 kts | 112° |
| 2026-05-08 19:21 | 13.82303 | 100.62044 | 2755 ft | 259 kts | 111° |
| 2026-05-08 19:22 | 13.81627 | 100.63765 | 3342 ft | 263 kts | 112° |
| 2026-05-08 19:22 | 13.80926 | 100.65512 | 3949 ft | 265 kts | 112° |
| 2026-05-08 19:22 | 13.80208 | 100.67269 | 4598 ft | 267 kts | 112° |
| 2026-05-08 19:22 | 13.79480 | 100.69035 | 5238 ft | 269 kts | 113° |
| 2026-05-08 19:23 | 13.78763 | 100.70782 | 5912 ft | 269 kts | 112° |
| 2026-05-08 19:23 | 13.78023 | 100.72562 | 6586 ft | 270 kts | 113° |
| 2026-05-08 19:23 | 13.77277 | 100.74345 | 7202 ft | 273 kts | 113° |
| 2026-05-08 19:23 | 13.76525 | 100.76143 | 7852 ft | 275 kts | 113° |
| 2026-05-08 19:24 | 13.75765 | 100.77962 | 8521 ft | 277 kts | 113° |
| 2026-05-08 19:24 | 13.75000 | 100.79793 | 9189 ft | 280 kts | 113° |
| 2026-05-08 19:24 | 13.74227 | 100.81642 | 9853 ft | 282 kts | 113° |
| 2026-05-08 19:24 | 13.73439 | 100.83529 | 10242 ft | 294 kts | 113° |
| 2026-05-08 19:25 | 13.72608 | 100.85517 | 10489 ft | 311 kts | 113° |
| 2026-05-08 19:25 | 13.71731 | 100.87616 | 10722 ft | 327 kts | 113° |
| 2026-05-08 19:25 | 13.70812 | 100.89814 | 10957 ft | 342 kts | 113° |
| 2026-05-08 19:25 | 13.69859 | 100.92093 | 11311 ft | 351 kts | 113° |
| 2026-05-08 19:26 | 13.68886 | 100.94418 | 11790 ft | 356 kts | 113° |
| 2026-05-08 19:26 | 13.67911 | 100.96747 | 12298 ft | 360 kts | 113° |
| 2026-05-08 19:26 | 13.66914 | 100.99128 | 12818 ft | 364 kts | 113° |
| 2026-05-08 19:26 | 13.65910 | 101.01526 | 13337 ft | 368 kts | 113° |
| 2026-05-08 19:27 | 13.64890 | 101.03960 | 13831 ft | 372 kts | 114° |
| 2026-05-08 19:27 | 13.63859 | 101.06420 | 14292 ft | 375 kts | 114° |
| 2026-05-08 19:27 | 13.62823 | 101.08891 | 14760 ft | 378 kts | 114° |
| 2026-05-08 19:27 | 13.61776 | 101.11388 | 15220 ft | 381 kts | 114° |
| 2026-05-08 19:28 | 13.60724 | 101.13896 | 15687 ft | 384 kts | 114° |
| 2026-05-08 19:28 | 13.59662 | 101.16428 | 16148 ft | 387 kts | 114° |
| 2026-05-08 19:28 | 13.58589 | 101.18984 | 16609 ft | 390 kts | 114° |
| 2026-05-08 19:28 | 13.57509 | 101.21556 | 17066 ft | 393 kts | 114° |
| 2026-05-08 19:29 | 13.56420 | 101.24148 | 17504 ft | 396 kts | 114° |
| 2026-05-08 19:29 | 13.55339 | 101.26721 | 17949 ft | 399 kts | 114° |
| 2026-05-08 19:29 | 13.54233 | 101.29352 | 18349 ft | 402 kts | 114° |
| 2026-05-08 19:29 | 13.53121 | 101.31996 | 18702 ft | 406 kts | 113° |
| 2026-05-08 19:30 | 13.51997 | 101.34669 | 19059 ft | 408 kts | 114° |
| 2026-05-08 19:30 | 13.50813 | 101.37330 | 19430 ft | 410 kts | 116° |
| 2026-05-08 19:30 | 13.49545 | 101.39963 | 19806 ft | 412 kts | 117° |
| 2026-05-08 19:30 | 13.48229 | 101.42589 | 20161 ft | 415 kts | 118° |
| 2026-05-08 19:31 | 13.46887 | 101.45228 | 20539 ft | 417 kts | 118° |
| 2026-05-08 19:31 | 13.45540 | 101.47872 | 20896 ft | 419 kts | 118° |
| 2026-05-08 19:31 | 13.44190 | 101.50534 | 21251 ft | 421 kts | 118° |
| 2026-05-08 19:31 | 13.42839 | 101.53213 | 21602 ft | 424 kts | 118° |
| 2026-05-08 19:32 | 13.41484 | 101.55909 | 21942 ft | 426 kts | 118° |
| 2026-05-08 19:32 | 13.40126 | 101.58628 | 22286 ft | 428 kts | 117° |
| 2026-05-08 19:32 | 13.38784 | 101.61369 | 22626 ft | 430 kts | 117° |
| 2026-05-08 19:32 | 13.37452 | 101.64126 | 22959 ft | 433 kts | 117° |
| 2026-05-08 19:33 | 13.36117 | 101.66905 | 23294 ft | 435 kts | 117° |
| 2026-05-08 19:33 | 13.34780 | 101.69693 | 23656 ft | 435 kts | 117° |
| 2026-05-08 19:33 | 13.33446 | 101.72469 | 23981 ft | 435 kts | 117° |
| 2026-05-08 19:33 | 13.32095 | 101.75276 | 24248 ft | 438 kts | 117° |
| 2026-05-08 19:34 | 13.30740 | 101.78087 | 24513 ft | 440 kts | 117° |
| 2026-05-08 19:34 | 13.29397 | 101.80869 | 24783 ft | 442 kts | 117° |
| 2026-05-08 19:34 | 13.28031 | 101.83695 | 25051 ft | 444 kts | 117° |
| 2026-05-08 19:34 | 13.26654 | 101.86543 | 25332 ft | 445 kts | 116° |
| 2026-05-08 19:35 | 13.25270 | 101.89404 | 25608 ft | 447 kts | 116° |
| 2026-05-08 19:35 | 13.23887 | 101.92263 | 25897 ft | 449 kts | 116° |
| 2026-05-08 19:35 | 13.22494 | 101.95142 | 26157 ft | 451 kts | 116° |
| 2026-05-08 19:35 | 13.21099 | 101.98023 | 26427 ft | 453 kts | 116° |
| 2026-05-08 19:36 | 13.20165 | 101.99952 | 26589 ft | 454 kts | 116° |
| 2026-05-08 19:36 | 13.18279 | 102.03847 | 26947 ft | 457 kts | 116° |
| 2026-05-08 19:36 | 13.16863 | 102.06769 | 27280 ft | 457 kts | 116° |
| 2026-05-08 19:36 | 13.15445 | 102.09697 | 27549 ft | 459 kts | 116° |
| 2026-05-08 19:37 | 13.14020 | 102.12636 | 27800 ft | 461 kts | 116° |
| 2026-05-08 19:37 | 13.12590 | 102.15585 | 28076 ft | 462 kts | 116° |
| 2026-05-08 19:37 | 13.11175 | 102.18502 | 28300 ft | 464 kts | 116° |
| 2026-05-08 19:37 | 13.09731 | 102.21477 | 28512 ft | 467 kts | 116° |
| 2026-05-08 19:38 | 13.08283 | 102.24460 | 28800 ft | 467 kts | 116° |
| 2026-05-08 19:38 | 13.06829 | 102.27453 | 29037 ft | 469 kts | 116° |
| 2026-05-08 19:38 | 13.05367 | 102.30463 | 29218 ft | 472 kts | 116° |
| 2026-05-08 19:38 | 13.03894 | 102.33493 | 29457 ft | 474 kts | 116° |
| 2026-05-08 19:39 | 13.02426 | 102.36514 | 29727 ft | 475 kts | 116° |
| 2026-05-08 19:39 | 13.00947 | 102.39556 | 29886 ft | 478 kts | 116° |
| 2026-05-08 19:39 | 12.99457 | 102.42619 | 30053 ft | 481 kts | 116° |
| 2026-05-08 19:39 | 12.97956 | 102.45702 | 30226 ft | 482 kts | 116° |
| 2026-05-08 19:40 | 12.96459 | 102.48775 | 30434 ft | 483 kts | 117° |
| 2026-05-08 19:40 | 12.94858 | 102.51814 | 30611 ft | 485 kts | 120° |
| 2026-05-08 19:40 | 12.93139 | 102.54796 | 30800 ft | 486 kts | 121° |
| 2026-05-08 19:40 | 12.91362 | 102.57749 | 30997 ft | 487 kts | 122° |
| 2026-05-08 19:41 | 12.89584 | 102.60662 | 31195 ft | 487 kts | 122° |
| 2026-05-08 19:41 | 12.87791 | 102.63604 | 31479 ft | 486 kts | 122° |
| 2026-05-08 19:41 | 12.86008 | 102.66547 | 31748 ft | 486 kts | 121° |
| 2026-05-08 19:41 | 12.84237 | 102.69492 | 32011 ft | 485 kts | 121° |
| 2026-05-08 19:42 | 12.82474 | 102.72440 | 32275 ft | 484 kts | 121° |
| 2026-05-08 19:42 | 12.80720 | 102.75380 | 32542 ft | 483 kts | 121° |
| 2026-05-08 19:42 | 12.78973 | 102.78315 | 32821 ft | 482 kts | 122° |
| 2026-05-08 19:42 | 12.77232 | 102.81239 | 33158 ft | 479 kts | 122° |
| 2026-05-08 19:43 | 12.75491 | 102.84161 | 33436 ft | 479 kts | 122° |
| 2026-05-08 19:43 | 12.73759 | 102.87066 | 33669 ft | 478 kts | 122° |
| 2026-05-08 19:43 | 12.72021 | 102.89980 | 33906 ft | 478 kts | 122° |
| 2026-05-08 19:43 | 12.70292 | 102.92878 | 34115 ft | 477 kts | 122° |
| 2026-05-08 19:44 | 12.68559 | 102.95781 | 34321 ft | 477 kts | 122° |
| 2026-05-08 19:44 | 12.66827 | 102.98680 | 34528 ft | 477 kts | 122° |
| 2026-05-08 19:44 | 12.65098 | 103.01574 | 34732 ft | 476 kts | 122° |
| 2026-05-08 19:44 | 12.63385 | 103.04440 | 34940 ft | 476 kts | 122° |
| 2026-05-08 19:45 | 12.61661 | 103.07324 | 35149 ft | 475 kts | 122° |
| 2026-05-08 19:45 | 12.59933 | 103.10214 | 35345 ft | 475 kts | 122° |
| 2026-05-08 19:45 | 12.58208 | 103.13097 | 35547 ft | 474 kts | 121° |
| 2026-05-08 19:45 | 12.56484 | 103.15978 | 35716 ft | 475 kts | 122° |
| 2026-05-08 19:46 | 12.54756 | 103.18865 | 35886 ft | 475 kts | 122° |
| 2026-05-08 19:46 | 12.53031 | 103.21745 | 36060 ft | 475 kts | 122° |
| 2026-05-08 19:46 | 12.49600 | 103.27473 | 36430 ft | 474 kts | 121° |
| 2026-05-08 19:47 | 12.47873 | 103.30355 | 36620 ft | 474 kts | 121° |
| 2026-05-08 19:47 | 12.46150 | 103.33228 | 36806 ft | 474 kts | 121° |
| 2026-05-08 19:47 | 12.42707 | 103.38968 | 36883 ft | 471 kts | 122° |
| 2026-05-08 19:48 | 12.39287 | 103.44669 | 36882 ft | 468 kts | 122° |
| 2026-05-08 19:48 | 12.35874 | 103.50351 | 36878 ft | 469 kts | 121° |
| 2026-05-08 19:49 | 12.32456 | 103.56040 | 36877 ft | 469 kts | 121° |
| 2026-05-08 19:49 | 12.29060 | 103.61689 | 36878 ft | 470 kts | 121° |
| 2026-05-08 19:50 | 12.25638 | 103.67377 | 36892 ft | 470 kts | 121° |
| 2026-05-08 19:50 | 12.22211 | 103.73067 | 36890 ft | 470 kts | 121° |
| 2026-05-08 19:51 | 12.19351 | 103.77791 | 36887 ft | 470 kts | 122° |
| 2026-05-08 19:51 | 12.15905 | 103.83475 | 36881 ft | 470 kts | 122° |
| 2026-05-08 19:52 | 12.12459 | 103.89157 | 36894 ft | 469 kts | 121° |
| 2026-05-08 19:52 | 12.09024 | 103.94819 | 36888 ft | 469 kts | 122° |
| 2026-05-08 19:53 | 12.05578 | 104.00497 | 36887 ft | 469 kts | 122° |
| 2026-05-08 19:53 | 12.02164 | 104.06121 | 36889 ft | 468 kts | 122° |
| 2026-05-08 19:54 | 11.98731 | 104.11771 | 36883 ft | 468 kts | 122° |
| 2026-05-08 19:54 | 11.95293 | 104.17423 | 36889 ft | 468 kts | 122° |
| 2026-05-08 19:55 | 11.91856 | 104.23073 | 36886 ft | 468 kts | 122° |
| 2026-05-08 19:55 | 11.88409 | 104.28736 | 36886 ft | 469 kts | 122° |
| 2026-05-08 19:56 | 11.84962 | 104.34394 | 36885 ft | 469 kts | 122° |
| 2026-05-08 19:56 | 11.81509 | 104.40060 | 36879 ft | 470 kts | 122° |
| 2026-05-08 19:57 | 11.78079 | 104.45684 | 36877 ft | 470 kts | 122° |
| 2026-05-08 19:57 | 11.74626 | 104.51343 | 36874 ft | 470 kts | 122° |
| 2026-05-08 19:58 | 11.71170 | 104.57004 | 36874 ft | 470 kts | 122° |
| 2026-05-08 19:58 | 11.67707 | 104.62672 | 36874 ft | 470 kts | 122° |
| 2026-05-08 19:59 | 11.64253 | 104.68323 | 36876 ft | 469 kts | 122° |
| 2026-05-08 19:59 | 11.60800 | 104.73968 | 36875 ft | 469 kts | 122° |
| 2026-05-08 20:00 | 11.57374 | 104.79568 | 36876 ft | 468 kts | 122° |
| 2026-05-08 20:00 | 11.54160 | 104.85348 | 36876 ft | 468 kts | 114° |
| 2026-05-08 20:01 | 11.51628 | 104.91470 | 36875 ft | 469 kts | 112° |
| 2026-05-08 20:01 | 11.49235 | 104.97663 | 36868 ft | 468 kts | 111° |
| 2026-05-08 20:02 | 11.46860 | 105.03850 | 36871 ft | 468 kts | 111° |
| 2026-05-08 20:02 | 11.44468 | 105.10019 | 36870 ft | 468 kts | 111° |
| 2026-05-08 20:03 | 11.42061 | 105.16193 | 36873 ft | 469 kts | 111° |
| 2026-05-08 20:03 | 11.39654 | 105.22364 | 36872 ft | 469 kts | 111° |
| 2026-05-08 20:04 | 11.37246 | 105.28541 | 36872 ft | 468 kts | 111° |
| 2026-05-08 20:04 | 11.34849 | 105.34678 | 36874 ft | 471 kts | 110° |
| 2026-05-08 20:05 | 11.32423 | 105.40892 | 36876 ft | 473 kts | 111° |
| 2026-05-08 20:05 | 11.29989 | 105.47121 | 36877 ft | 473 kts | 110° |
| 2026-05-08 20:06 | 11.27556 | 105.53344 | 36871 ft | 473 kts | 111° |
| 2026-05-08 20:06 | 11.25118 | 105.59566 | 36873 ft | 472 kts | 111° |
| 2026-05-08 20:07 | 11.22680 | 105.65785 | 36870 ft | 473 kts | 110° |
| 2026-05-08 20:07 | 11.20243 | 105.72007 | 36869 ft | 473 kts | 110° |
| 2026-05-08 20:08 | 11.17811 | 105.78209 | 36872 ft | 473 kts | 110° |
| 2026-05-08 20:08 | 11.15369 | 105.84433 | 36866 ft | 473 kts | 110° |
| 2026-05-08 20:09 | 11.12924 | 105.90659 | 36864 ft | 473 kts | 110° |
| 2026-05-08 20:09 | 11.10478 | 105.96888 | 36861 ft | 473 kts | 110° |
| 2026-05-08 20:10 | 11.08028 | 106.03115 | 36861 ft | 473 kts | 110° |
| 2026-05-08 20:10 | 11.05578 | 106.09338 | 36857 ft | 473 kts | 110° |
| 2026-05-08 20:11 | 11.03141 | 106.15526 | 36856 ft | 473 kts | 110° |
| 2026-05-08 20:11 | 11.00626 | 106.21716 | 36853 ft | 474 kts | 112° |
| 2026-05-08 20:12 | 10.97969 | 106.27866 | 36852 ft | 474 kts | 112° |
| 2026-05-08 20:12 | 10.95295 | 106.33996 | 36849 ft | 474 kts | 112° |
| 2026-05-08 20:13 | 10.92650 | 106.40089 | 36852 ft | 474 kts | 112° |
| 2026-05-08 20:13 | 10.90000 | 106.46220 | 36854 ft | 474 kts | 112° |
| 2026-05-08 20:14 | 10.87351 | 106.52357 | 36855 ft | 474 kts | 112° |
| 2026-05-08 20:14 | 10.84700 | 106.58494 | 36856 ft | 474 kts | 112° |
| 2026-05-08 20:15 | 10.81889 | 106.64565 | 36856 ft | 475 kts | 120° |
| 2026-05-08 20:15 | 10.78086 | 106.70066 | 36857 ft | 476 kts | 125° |
| 2026-05-08 20:16 | 10.74037 | 106.75402 | 36855 ft | 477 kts | 126° |
| 2026-05-08 20:16 | 10.69940 | 106.80709 | 36853 ft | 477 kts | 126° |
| 2026-05-08 20:17 | 10.65859 | 106.86016 | 36848 ft | 477 kts | 126° |
| 2026-05-08 20:17 | 10.61804 | 106.91309 | 36843 ft | 477 kts | 126° |
| 2026-05-08 20:18 | 10.57730 | 106.96635 | 36842 ft | 477 kts | 126° |
| 2026-05-08 20:18 | 10.53659 | 107.01955 | 36843 ft | 476 kts | 126° |
| 2026-05-08 20:19 | 10.49588 | 107.07271 | 36843 ft | 476 kts | 126° |
| 2026-05-08 20:19 | 10.45547 | 107.12605 | 36843 ft | 476 kts | 125° |
| 2026-05-08 20:20 | 10.41519 | 107.17960 | 36843 ft | 476 kts | 125° |
| 2026-05-08 20:20 | 10.37524 | 107.23269 | 36842 ft | 476 kts | 125° |
| 2026-05-08 20:21 | 10.33494 | 107.28616 | 36845 ft | 476 kts | 125° |
| 2026-05-08 20:21 | 10.29460 | 107.33963 | 36845 ft | 476 kts | 125° |
| 2026-05-08 20:22 | 10.25430 | 107.39300 | 36846 ft | 476 kts | 125° |
| 2026-05-08 20:22 | 10.22069 | 107.43749 | 36846 ft | 477 kts | 124° |
| 2026-05-08 20:23 | 10.17356 | 107.49989 | 36845 ft | 477 kts | 124° |
| 2026-05-08 20:23 | 10.13344 | 107.55301 | 36845 ft | 477 kts | 125° |
| 2026-05-08 20:24 | 10.09320 | 107.60648 | 36845 ft | 477 kts | 125° |
| 2026-05-08 20:24 | 10.05298 | 107.66003 | 36847 ft | 477 kts | 124° |
| 2026-05-08 20:25 | 10.01276 | 107.71361 | 36843 ft | 477 kts | 124° |
| 2026-05-08 20:25 | 9.97252 | 107.76711 | 36841 ft | 477 kts | 124° |
| 2026-05-08 20:26 | 9.93216 | 107.82074 | 36840 ft | 478 kts | 124° |
| 2026-05-08 20:26 | 9.89185 | 107.87430 | 36840 ft | 478 kts | 124° |
| 2026-05-08 20:27 | 9.85148 | 107.92792 | 36841 ft | 478 kts | 124° |
| 2026-05-08 20:27 | 9.81115 | 107.98144 | 36841 ft | 478 kts | 124° |
| 2026-05-08 20:28 | 9.77079 | 108.03497 | 36840 ft | 478 kts | 124° |
| 2026-05-08 20:28 | 9.73039 | 108.08852 | 36839 ft | 478 kts | 124° |
| 2026-05-08 20:29 | 9.68998 | 108.14207 | 36840 ft | 478 kts | 124° |
| 2026-05-08 20:29 | 9.64991 | 108.19516 | 36841 ft | 478 kts | 124° |
| 2026-05-08 20:30 | 9.60947 | 108.24870 | 36843 ft | 478 kts | 124° |
| 2026-05-08 20:30 | 9.56907 | 108.30218 | 36843 ft | 478 kts | 124° |
| 2026-05-08 20:31 | 9.52858 | 108.35575 | 36840 ft | 478 kts | 124° |
| 2026-05-08 20:31 | 9.48813 | 108.40923 | 36840 ft | 478 kts | 124° |
| 2026-05-08 20:32 | 9.44816 | 108.46301 | 36840 ft | 477 kts | 123° |
| 2026-05-08 20:32 | 9.40978 | 108.51795 | 36840 ft | 477 kts | 122° |
| 2026-05-08 20:33 | 9.37208 | 108.57264 | 36837 ft | 477 kts | 122° |
| 2026-05-08 20:33 | 9.33401 | 108.62757 | 36838 ft | 477 kts | 122° |
| 2026-05-08 20:34 | 9.29574 | 108.68252 | 36840 ft | 477 kts | 122° |
| 2026-05-08 20:35 | 9.23826 | 108.76484 | 36834 ft | 477 kts | 123° |
| 2026-05-08 20:35 | 9.20023 | 108.81927 | 36834 ft | 476 kts | 123° |
| 2026-05-08 20:36 | 9.16201 | 108.87399 | 36834 ft | 475 kts | 123° |
| 2026-05-08 20:36 | 9.12376 | 108.92876 | 36833 ft | 475 kts | 123° |
| 2026-05-08 20:37 | 9.08563 | 108.98334 | 36837 ft | 475 kts | 123° |
| 2026-05-08 20:37 | 9.04739 | 109.03804 | 36837 ft | 475 kts | 122° |
| 2026-05-08 20:38 | 9.00942 | 109.09232 | 36838 ft | 475 kts | 123° |
| 2026-05-08 20:38 | 8.97119 | 109.14690 | 36831 ft | 475 kts | 122° |
| 2026-05-08 20:39 | 8.93308 | 109.20130 | 36832 ft | 473 kts | 123° |
| 2026-05-08 20:39 | 8.89497 | 109.25568 | 36832 ft | 474 kts | 123° |
| 2026-05-08 20:40 | 8.85683 | 109.31007 | 36835 ft | 474 kts | 122° |
| 2026-05-08 20:40 | 8.82509 | 109.35530 | 36835 ft | 474 kts | 123° |
| 2026-05-08 20:41 | 8.78688 | 109.40960 | 36833 ft | 474 kts | 123° |
| 2026-05-08 20:41 | 8.74237 | 109.47276 | 36836 ft | 474 kts | 123° |
| 2026-05-08 20:42 | 8.70408 | 109.52702 | 36833 ft | 473 kts | 123° |
| 2026-05-08 20:42 | 8.67227 | 109.57209 | 36832 ft | 473 kts | 124° |
| 2026-05-08 20:43 | 8.63406 | 109.62622 | 36831 ft | 473 kts | 123° |
| 2026-05-08 20:43 | 8.59580 | 109.68043 | 36832 ft | 473 kts | 123° |
| 2026-05-08 20:44 | 8.55757 | 109.73456 | 36831 ft | 473 kts | 123° |
| 2026-05-08 20:44 | 8.51953 | 109.78841 | 36832 ft | 473 kts | 123° |
| 2026-05-08 20:45 | 8.48100 | 109.84291 | 36833 ft | 474 kts | 124° |
| 2026-05-08 20:45 | 8.44299 | 109.89667 | 36831 ft | 474 kts | 123° |
| 2026-05-08 20:46 | 8.40464 | 109.95089 | 36834 ft | 474 kts | 124° |
| 2026-05-08 20:46 | 8.36632 | 110.00503 | 36831 ft | 473 kts | 123° |
| 2026-05-08 20:47 | 8.32798 | 110.05920 | 36830 ft | 473 kts | 123° |
| 2026-05-08 20:47 | 8.28969 | 110.11330 | 36827 ft | 474 kts | 123° |
| 2026-05-08 20:48 | 8.25141 | 110.16737 | 36831 ft | 473 kts | 124° |
| 2026-05-08 20:48 | 8.21309 | 110.22141 | 36832 ft | 473 kts | 124° |
| 2026-05-08 20:49 | 8.17514 | 110.27515 | 36836 ft | 472 kts | 123° |
| 2026-05-08 20:49 | 8.13716 | 110.32906 | 36832 ft | 470 kts | 123° |
| 2026-05-08 20:50 | 8.09921 | 110.38291 | 36830 ft | 470 kts | 123° |
| 2026-05-08 20:50 | 8.06128 | 110.43666 | 36832 ft | 470 kts | 123° |
| 2026-05-08 20:51 | 8.02324 | 110.49051 | 36832 ft | 470 kts | 124° |
| 2026-05-08 20:51 | 7.98529 | 110.54423 | 36832 ft | 470 kts | 124° |
| 2026-05-08 20:52 | 7.94753 | 110.59767 | 36835 ft | 470 kts | 124° |
| 2026-05-08 20:52 | 7.90955 | 110.65142 | 36832 ft | 470 kts | 123° |
| 2026-05-08 20:53 | 7.87158 | 110.70512 | 36833 ft | 470 kts | 124° |
| 2026-05-08 20:53 | 7.83361 | 110.75879 | 36830 ft | 470 kts | 123° |
| 2026-05-08 20:54 | 7.79562 | 110.81247 | 36830 ft | 470 kts | 124° |
| 2026-05-08 20:54 | 7.75765 | 110.86613 | 36829 ft | 469 kts | 124° |
| 2026-05-08 20:55 | 7.71975 | 110.91966 | 36828 ft | 469 kts | 124° |
| 2026-05-08 20:55 | 7.68184 | 110.97319 | 36830 ft | 469 kts | 124° |
| 2026-05-08 20:56 | 7.64412 | 111.02643 | 36830 ft | 469 kts | 124° |
| 2026-05-08 20:56 | 7.60622 | 111.07992 | 36829 ft | 469 kts | 124° |
| 2026-05-08 20:57 | 7.56833 | 111.13338 | 36829 ft | 469 kts | 124° |
| 2026-05-08 20:57 | 7.53041 | 111.18686 | 36829 ft | 468 kts | 124° |
| 2026-05-08 20:58 | 7.49250 | 111.24030 | 36830 ft | 469 kts | 124° |
| 2026-05-08 20:58 | 7.45460 | 111.29371 | 36829 ft | 468 kts | 124° |
| 2026-05-08 20:59 | 7.41671 | 111.34709 | 36829 ft | 468 kts | 124° |
| 2026-05-08 20:59 | 7.37878 | 111.40052 | 36828 ft | 469 kts | 124° |
| 2026-05-08 21:00 | 7.34085 | 111.45390 | 36828 ft | 468 kts | 124° |
| 2026-05-08 21:00 | 7.30311 | 111.50702 | 36826 ft | 469 kts | 123° |
| 2026-05-08 21:01 | 7.26513 | 111.56044 | 36828 ft | 468 kts | 124° |
| 2026-05-08 21:01 | 7.22720 | 111.61373 | 36826 ft | 468 kts | 124° |
| 2026-05-08 21:02 | 7.18916 | 111.66712 | 36826 ft | 469 kts | 124° |
| 2026-05-08 21:02 | 7.15115 | 111.72047 | 36826 ft | 468 kts | 124° |
| 2026-05-08 21:03 | 7.11312 | 111.77383 | 36825 ft | 469 kts | 124° |
| 2026-05-08 21:03 | 7.07529 | 111.82688 | 36825 ft | 469 kts | 124° |
| 2026-05-08 21:04 | 7.03714 | 111.88037 | 36826 ft | 472 kts | 124° |
| 2026-05-08 21:04 | 6.99871 | 111.93424 | 36827 ft | 474 kts | 124° |
| 2026-05-08 21:05 | 6.96023 | 111.98816 | 36827 ft | 474 kts | 124° |
| 2026-05-08 21:05 | 6.92172 | 112.04211 | 36826 ft | 474 kts | 124° |
| 2026-05-08 21:06 | 6.88348 | 112.09565 | 36826 ft | 474 kts | 124° |
| 2026-05-08 21:06 | 6.84491 | 112.14963 | 36825 ft | 474 kts | 125° |
| 2026-05-08 21:07 | 6.80624 | 112.20377 | 36827 ft | 477 kts | 125° |
| 2026-05-08 21:07 | 6.76753 | 112.25795 | 36826 ft | 477 kts | 125° |
| 2026-05-08 21:08 | 6.72885 | 112.31206 | 36828 ft | 477 kts | 124° |
| 2026-05-08 21:08 | 6.69009 | 112.36624 | 36825 ft | 477 kts | 124° |
| 2026-05-08 21:09 | 6.65128 | 112.42050 | 36824 ft | 478 kts | 126° |
| 2026-05-08 21:09 | 6.61260 | 112.47453 | 36822 ft | 480 kts | 126° |
| 2026-05-08 21:10 | 6.57364 | 112.52898 | 36823 ft | 479 kts | 126° |
| 2026-05-08 21:10 | 6.53471 | 112.58337 | 36823 ft | 479 kts | 126° |
| 2026-05-08 21:11 | 6.49569 | 112.63770 | 36826 ft | 479 kts | 126° |
| 2026-05-08 21:11 | 6.45664 | 112.69197 | 36826 ft | 479 kts | 126° |
| 2026-05-08 21:12 | 6.41746 | 112.74625 | 36827 ft | 479 kts | 126° |
| 2026-05-08 21:12 | 6.37852 | 112.80007 | 36825 ft | 479 kts | 126° |
| 2026-05-08 21:13 | 6.33941 | 112.85430 | 36825 ft | 478 kts | 126° |
| 2026-05-08 21:13 | 6.30038 | 112.90849 | 36826 ft | 478 kts | 126° |
| 2026-05-08 21:14 | 6.26140 | 112.96263 | 36825 ft | 478 kts | 126° |
| 2026-05-08 21:14 | 6.22240 | 113.01678 | 36824 ft | 478 kts | 126° |
| 2026-05-08 21:15 | 6.18362 | 113.07059 | 36823 ft | 478 kts | 126° |
| 2026-05-08 21:15 | 6.14466 | 113.12464 | 36820 ft | 477 kts | 126° |
| 2026-05-08 21:16 | 6.10568 | 113.17871 | 36825 ft | 477 kts | 126° |
| 2026-05-08 21:16 | 6.06670 | 113.23276 | 36823 ft | 477 kts | 126° |
| 2026-05-08 21:17 | 6.02777 | 113.28672 | 36827 ft | 477 kts | 126° |
| 2026-05-08 21:17 | 5.98877 | 113.34077 | 36826 ft | 477 kts | 126° |
| 2026-05-08 21:18 | 5.94984 | 113.39484 | 36825 ft | 477 kts | 126° |
| 2026-05-08 21:18 | 5.91128 | 113.44850 | 36825 ft | 477 kts | 126° |
| 2026-05-08 21:19 | 5.87243 | 113.50254 | 36826 ft | 477 kts | 126° |
| 2026-05-08 21:19 | 5.83994 | 113.54770 | 36826 ft | 477 kts | 126° |
| 2026-05-08 21:20 | 5.79474 | 113.61051 | 36826 ft | 477 kts | 126° |
| 2026-05-08 21:20 | 5.75584 | 113.66455 | 36826 ft | 477 kts | 126° |
| 2026-05-08 21:21 | 5.71720 | 113.71822 | 36827 ft | 477 kts | 126° |
| 2026-05-08 21:21 | 5.67829 | 113.77225 | 36827 ft | 476 kts | 127° |
| 2026-05-08 21:22 | 5.63947 | 113.82614 | 36830 ft | 476 kts | 127° |
| 2026-05-08 21:22 | 5.60065 | 113.88001 | 36829 ft | 476 kts | 127° |
| 2026-05-08 21:23 | 5.56176 | 113.93398 | 36827 ft | 476 kts | 127° |
| 2026-05-08 21:23 | 5.52332 | 113.98730 | 36825 ft | 472 kts | 127° |
| 2026-05-08 21:24 | 5.48484 | 114.04066 | 36826 ft | 471 kts | 127° |
| 2026-05-08 21:24 | 5.44634 | 114.09403 | 36826 ft | 472 kts | 127° |
| 2026-05-08 21:25 | 5.40765 | 114.14767 | 36830 ft | 474 kts | 126° |
| 2026-05-08 21:25 | 5.37550 | 114.19224 | 36829 ft | 474 kts | 126° |
| 2026-05-08 21:26 | 5.33050 | 114.25462 | 36828 ft | 474 kts | 126° |
| 2026-05-08 21:26 | 5.29180 | 114.30824 | 36829 ft | 474 kts | 126° |
| 2026-05-08 21:27 | 5.25311 | 114.36186 | 36828 ft | 474 kts | 127° |
| 2026-05-08 21:27 | 5.22092 | 114.40644 | 36830 ft | 475 kts | 126° |
| 2026-05-08 21:28 | 5.17546 | 114.46940 | 36829 ft | 476 kts | 127° |
| 2026-05-08 21:28 | 5.14322 | 114.51405 | 36829 ft | 474 kts | 127° |
| 2026-05-08 21:29 | 5.09830 | 114.57622 | 36831 ft | 474 kts | 127° |
| 2026-05-08 21:29 | 5.05959 | 114.62978 | 36836 ft | 474 kts | 127° |
| 2026-05-08 21:30 | 5.02739 | 114.67433 | 36837 ft | 474 kts | 127° |
| 2026-05-08 21:30 | 4.98865 | 114.72792 | 36846 ft | 474 kts | 127° |
| 2026-05-08 21:31 | 4.94995 | 114.78143 | 36854 ft | 474 kts | 127° |
| 2026-05-08 21:31 | 4.91123 | 114.83498 | 36834 ft | 474 kts | 127° |
| 2026-05-08 21:32 | 4.87169 | 114.88784 | 36834 ft | 473 kts | 131° |
| 2026-05-08 21:32 | 4.82878 | 114.93782 | 36835 ft | 473 kts | 131° |
| 2026-05-08 21:33 | 4.78541 | 114.98697 | 36834 ft | 473 kts | 132° |
| 2026-05-08 21:33 | 4.74162 | 115.03638 | 36839 ft | 473 kts | 132° |
| 2026-05-08 21:34 | 4.69783 | 115.08588 | 36842 ft | 473 kts | 132° |
| 2026-05-08 21:34 | 4.65413 | 115.13535 | 36845 ft | 473 kts | 132° |
| 2026-05-08 21:35 | 4.61042 | 115.18484 | 36854 ft | 473 kts | 132° |
| 2026-05-08 21:35 | 4.56704 | 115.23396 | 36853 ft | 473 kts | 132° |
| 2026-05-08 21:36 | 4.52339 | 115.28336 | 36879 ft | 473 kts | 132° |
| 2026-05-08 21:36 | 4.47973 | 115.33276 | 36885 ft | 473 kts | 132° |
| 2026-05-08 21:37 | 4.43607 | 115.38216 | 36880 ft | 472 kts | 132° |
| 2026-05-08 21:37 | 4.39250 | 115.43145 | 36914 ft | 472 kts | 132° |
| 2026-05-08 21:38 | 4.34890 | 115.48076 | 36908 ft | 472 kts | 132° |
| 2026-05-08 21:38 | 4.30554 | 115.53010 | 36924 ft | 472 kts | 131° |
| 2026-05-08 21:39 | 4.26259 | 115.57997 | 36934 ft | 472 kts | 131° |
| 2026-05-08 21:39 | 4.22006 | 115.62958 | 36935 ft | 472 kts | 131° |
| 2026-05-08 21:40 | 4.17720 | 115.67947 | 36937 ft | 471 kts | 131° |
| 2026-05-08 21:40 | 4.13446 | 115.72914 | 36939 ft | 470 kts | 131° |
| 2026-05-08 21:41 | 4.06832 | 115.80151 | 36932 ft | 468 kts | 137° |
| 2026-05-08 21:41 | 4.02092 | 115.84607 | 36933 ft | 468 kts | 138° |
| 2026-05-08 21:42 | 3.97302 | 115.89012 | 36921 ft | 468 kts | 138° |
| 2026-05-08 21:42 | 3.92500 | 115.93421 | 36922 ft | 468 kts | 138° |
| 2026-05-08 21:43 | 3.87742 | 115.97800 | 36922 ft | 468 kts | 138° |
| 2026-05-08 21:43 | 3.82950 | 116.02216 | 36911 ft | 468 kts | 138° |
| 2026-05-08 21:44 | 3.78155 | 116.06637 | 36908 ft | 468 kts | 138° |
| 2026-05-08 21:44 | 3.73358 | 116.11058 | 36907 ft | 468 kts | 138° |
| 2026-05-08 21:45 | 3.68559 | 116.15481 | 36895 ft | 468 kts | 138° |
| 2026-05-08 21:45 | 3.63800 | 116.19865 | 36895 ft | 468 kts | 138° |
| 2026-05-08 21:46 | 3.59002 | 116.24284 | 36893 ft | 468 kts | 138° |
| 2026-05-08 21:46 | 3.54205 | 116.28703 | 36878 ft | 468 kts | 138° |
| 2026-05-08 21:47 | 3.49415 | 116.33115 | 36882 ft | 468 kts | 138° |
| 2026-05-08 21:47 | 3.44618 | 116.37531 | 36882 ft | 468 kts | 138° |
| 2026-05-08 21:48 | 3.39827 | 116.41939 | 36871 ft | 468 kts | 138° |
| 2026-05-08 21:48 | 3.35035 | 116.46350 | 36871 ft | 468 kts | 138° |
| 2026-05-08 21:49 | 3.30263 | 116.50743 | 36859 ft | 468 kts | 138° |
| 2026-05-08 21:49 | 3.25473 | 116.55152 | 36859 ft | 468 kts | 138° |
| 2026-05-08 21:50 | 3.20672 | 116.59569 | 36860 ft | 470 kts | 138° |
| 2026-05-08 21:50 | 3.15844 | 116.64010 | 36857 ft | 471 kts | 138° |
| 2026-05-08 21:51 | 3.11021 | 116.68447 | 36859 ft | 471 kts | 138° |
| 2026-05-08 21:51 | 3.06199 | 116.72881 | 36858 ft | 471 kts | 138° |
| 2026-05-08 21:52 | 3.01415 | 116.77281 | 36855 ft | 469 kts | 138° |
| 2026-05-08 21:52 | 2.96622 | 116.81689 | 36856 ft | 468 kts | 138° |
| 2026-05-08 21:53 | 2.91816 | 116.86107 | 36859 ft | 468 kts | 138° |
| 2026-05-08 21:53 | 2.87007 | 116.90528 | 36851 ft | 470 kts | 138° |
| 2026-05-08 21:54 | 2.82191 | 116.94954 | 36853 ft | 471 kts | 138° |
| 2026-05-08 21:54 | 2.77360 | 116.99394 | 36849 ft | 471 kts | 138° |
| 2026-05-08 21:55 | 2.72569 | 117.03797 | 36848 ft | 471 kts | 138° |
| 2026-05-08 21:56 | 2.65364 | 117.10417 | 36847 ft | 465 kts | 138° |
| 2026-05-08 21:56 | 2.60593 | 117.14801 | 36846 ft | 465 kts | 138° |
| 2026-05-08 21:57 | 2.55825 | 117.19180 | 36849 ft | 465 kts | 138° |
| 2026-05-08 21:57 | 2.51058 | 117.23559 | 36845 ft | 465 kts | 138° |
| 2026-05-08 21:58 | 2.46320 | 117.27910 | 36845 ft | 465 kts | 138° |
| 2026-05-08 21:58 | 2.41554 | 117.32286 | 36848 ft | 465 kts | 138° |
| 2026-05-08 21:59 | 2.36785 | 117.36666 | 36851 ft | 465 kts | 138° |
| 2026-05-08 21:59 | 2.32029 | 117.41033 | 36847 ft | 462 kts | 138° |
| 2026-05-08 22:00 | 2.27300 | 117.45374 | 36848 ft | 461 kts | 138° |
| 2026-05-08 22:00 | 2.22572 | 117.49714 | 36851 ft | 461 kts | 138° |
| 2026-05-08 22:01 | 2.17844 | 117.54054 | 36853 ft | 461 kts | 138° |
| 2026-05-08 22:01 | 2.13115 | 117.58393 | 36856 ft | 461 kts | 138° |
| 2026-05-08 22:02 | 2.08414 | 117.62707 | 36856 ft | 462 kts | 138° |
| 2026-05-08 22:02 | 2.03682 | 117.67050 | 36856 ft | 461 kts | 138° |
| 2026-05-08 22:03 | 1.98951 | 117.71390 | 36862 ft | 462 kts | 138° |
| 2026-05-08 22:03 | 1.94208 | 117.75742 | 36859 ft | 462 kts | 138° |
| 2026-05-08 22:04 | 1.89471 | 117.80088 | 36859 ft | 462 kts | 138° |
| 2026-05-08 22:04 | 1.84725 | 117.84442 | 36864 ft | 462 kts | 138° |
| 2026-05-08 22:05 | 1.79986 | 117.88789 | 36864 ft | 462 kts | 138° |
| 2026-05-08 22:05 | 1.75244 | 117.93138 | 36870 ft | 462 kts | 138° |
| 2026-05-08 22:06 | 1.70503 | 117.97486 | 36869 ft | 462 kts | 138° |
| 2026-05-08 22:06 | 1.65757 | 118.01838 | 36870 ft | 462 kts | 138° |
| 2026-05-08 22:07 | 1.61028 | 118.06175 | 36876 ft | 460 kts | 138° |
| 2026-05-08 22:07 | 1.56344 | 118.10470 | 36867 ft | 459 kts | 137° |
| 2026-05-08 22:08 | 1.51632 | 118.14791 | 36870 ft | 459 kts | 137° |
| 2026-05-08 22:08 | 1.46927 | 118.19104 | 36873 ft | 459 kts | 137° |
| 2026-05-08 22:09 | 1.42218 | 118.23421 | 36873 ft | 459 kts | 137° |
| 2026-05-08 22:09 | 1.37515 | 118.27733 | 36873 ft | 459 kts | 137° |
| 2026-05-08 22:10 | 1.32801 | 118.32054 | 36873 ft | 459 kts | 137° |
| 2026-05-08 22:10 | 1.28088 | 118.36373 | 36873 ft | 460 kts | 137° |
| 2026-05-08 22:11 | 1.23379 | 118.40690 | 36872 ft | 459 kts | 137° |
| 2026-05-08 22:11 | 1.18708 | 118.44971 | 36873 ft | 458 kts | 137° |
| 2026-05-08 22:12 | 1.14009 | 118.49278 | 36872 ft | 458 kts | 137° |
| 2026-05-08 22:12 | 1.09301 | 118.53592 | 36872 ft | 458 kts | 137° |
| 2026-05-08 22:13 | 1.04604 | 118.57897 | 36873 ft | 458 kts | 137° |
| 2026-05-08 22:13 | 0.99896 | 118.62211 | 36872 ft | 458 kts | 137° |
| 2026-05-08 22:14 | 0.95226 | 118.66490 | 36872 ft | 458 kts | 137° |
| 2026-05-08 22:14 | 0.90522 | 118.70800 | 36870 ft | 459 kts | 137° |
| 2026-05-08 22:15 | 0.85807 | 118.75120 | 36870 ft | 459 kts | 137° |
| 2026-05-08 22:15 | 0.81099 | 118.79434 | 36870 ft | 459 kts | 137° |
| 2026-05-08 22:16 | 0.76390 | 118.83748 | 36867 ft | 459 kts | 137° |
| 2026-05-08 22:16 | 0.71670 | 118.88072 | 36868 ft | 459 kts | 137° |
| 2026-05-08 22:17 | 0.66957 | 118.92391 | 36865 ft | 459 kts | 137° |
| 2026-05-08 22:17 | 0.63028 | 118.95989 | 36862 ft | 462 kts | 137° |
| 2026-05-08 22:18 | 0.58268 | 119.00350 | 36863 ft | 465 kts | 137° |
| 2026-05-08 22:18 | 0.52716 | 119.05437 | 36865 ft | 466 kts | 137° |
| 2026-05-08 22:19 | 0.48748 | 119.09071 | 36867 ft | 466 kts | 137° |
| 2026-05-08 22:19 | 0.43971 | 119.13447 | 36864 ft | 466 kts | 137° |
| 2026-05-08 22:20 | 0.39192 | 119.17824 | 36865 ft | 466 kts | 137° |
| 2026-05-08 22:20 | 0.34409 | 119.22206 | 36865 ft | 466 kts | 137° |
| 2026-05-08 22:21 | 0.29631 | 119.26582 | 36864 ft | 466 kts | 137° |
| 2026-05-08 22:21 | 0.24845 | 119.30966 | 36865 ft | 467 kts | 137° |
| 2026-05-08 22:22 | 0.20055 | 119.35354 | 36867 ft | 467 kts | 137° |
| 2026-05-08 22:22 | 0.15300 | 119.39709 | 36865 ft | 467 kts | 137° |
| 2026-05-08 22:23 | 0.10510 | 119.44096 | 36865 ft | 467 kts | 137° |
| 2026-05-08 22:23 | 0.05722 | 119.48482 | 36868 ft | 467 kts | 137° |
| 2026-05-08 22:24 | 0.00920 | 119.52859 | 36869 ft | 467 kts | 138° |
| 2026-05-08 22:24 | -0.03926 | 119.57199 | 36867 ft | 468 kts | 138° |
| 2026-05-08 22:25 | -0.08789 | 119.61536 | 36872 ft | 469 kts | 138° |
| 2026-05-08 22:25 | -0.13663 | 119.65890 | 36873 ft | 470 kts | 138° |
| 2026-05-08 22:26 | -0.18537 | 119.70251 | 36878 ft | 469 kts | 138° |
| 2026-05-08 22:26 | -0.23391 | 119.74595 | 36878 ft | 469 kts | 138° |
| 2026-05-08 22:27 | -0.28231 | 119.78926 | 36879 ft | 469 kts | 138° |
| 2026-05-08 22:27 | -0.33088 | 119.83273 | 36889 ft | 469 kts | 138° |
| 2026-05-08 22:28 | -0.37953 | 119.87626 | 36884 ft | 469 kts | 137° |
| 2026-05-08 22:28 | -0.42825 | 119.91986 | 36884 ft | 470 kts | 137° |
| 2026-05-08 22:29 | -0.47699 | 119.96349 | 36884 ft | 470 kts | 137° |
| 2026-05-08 22:29 | -0.52533 | 120.00676 | 36885 ft | 470 kts | 137° |
| 2026-05-08 22:30 | -0.57401 | 120.05032 | 36885 ft | 470 kts | 137° |
| 2026-05-08 22:30 | -0.62271 | 120.09391 | 36887 ft | 470 kts | 137° |
| 2026-05-08 22:31 | -0.67141 | 120.13749 | 36892 ft | 471 kts | 137° |
| 2026-05-08 22:31 | -0.72041 | 120.18135 | 36883 ft | 474 kts | 137° |
| 2026-05-08 22:32 | -0.76954 | 120.22532 | 36884 ft | 474 kts | 137° |
| 2026-05-08 22:32 | -0.81871 | 120.26933 | 36895 ft | 474 kts | 137° |
| 2026-05-08 22:33 | -0.86792 | 120.31338 | 36883 ft | 474 kts | 137° |
| 2026-05-08 22:33 | -0.91706 | 120.35737 | 36884 ft | 474 kts | 137° |
| 2026-05-08 22:34 | -0.96601 | 120.40119 | 36891 ft | 474 kts | 137° |
| 2026-05-08 22:34 | -1.01522 | 120.44524 | 36889 ft | 475 kts | 137° |
| 2026-05-08 22:35 | -1.06442 | 120.48929 | 36903 ft | 475 kts | 137° |
| 2026-05-08 22:35 | -1.11366 | 120.53337 | 36894 ft | 475 kts | 137° |
| 2026-05-08 22:36 | -1.16266 | 120.57724 | 36894 ft | 475 kts | 137° |
| 2026-05-08 22:36 | -1.21180 | 120.62125 | 36909 ft | 475 kts | 137° |
| 2026-05-08 22:37 | -1.26104 | 120.66534 | 36900 ft | 475 kts | 137° |
| 2026-05-08 22:37 | -1.31024 | 120.70939 | 36900 ft | 475 kts | 137° |
| 2026-05-08 22:38 | -1.35951 | 120.75352 | 36910 ft | 476 kts | 137° |
| 2026-05-08 22:38 | -1.40877 | 120.79764 | 36909 ft | 475 kts | 137° |
| 2026-05-08 22:39 | -1.45773 | 120.84148 | 36932 ft | 475 kts | 137° |
| 2026-05-08 22:39 | -1.50696 | 120.88558 | 36936 ft | 475 kts | 137° |
| 2026-05-08 22:40 | -1.55618 | 120.92967 | 36935 ft | 475 kts | 137° |
| 2026-05-08 22:40 | -1.60542 | 120.97377 | 36921 ft | 474 kts | 137° |
| 2026-05-08 22:41 | -1.65453 | 121.01777 | 36942 ft | 473 kts | 138° |
| 2026-05-08 22:41 | -1.70356 | 121.06169 | 36967 ft | 472 kts | 137° |
| 2026-05-08 22:42 | -1.75243 | 121.10549 | 36952 ft | 472 kts | 138° |
| 2026-05-08 22:42 | -1.80141 | 121.14937 | 36950 ft | 472 kts | 137° |
| 2026-05-08 22:43 | -1.85003 | 121.19294 | 36953 ft | 472 kts | 137° |
| 2026-05-08 22:43 | -1.89894 | 121.23677 | 36938 ft | 472 kts | 137° |
| 2026-05-08 22:44 | -1.94789 | 121.28065 | 36938 ft | 473 kts | 137° |
| 2026-05-08 22:44 | -1.99687 | 121.32456 | 36938 ft | 473 kts | 137° |
| 2026-05-08 22:45 | -2.04597 | 121.36857 | 36922 ft | 473 kts | 137° |
| 2026-05-08 22:45 | -2.09499 | 121.41252 | 36931 ft | 473 kts | 137° |
| 2026-05-08 22:46 | -2.14364 | 121.45613 | 36931 ft | 473 kts | 137° |
| 2026-05-08 22:46 | -2.19274 | 121.50015 | 36932 ft | 473 kts | 137° |
| 2026-05-08 22:47 | -2.24176 | 121.54411 | 36930 ft | 473 kts | 137° |
| 2026-05-08 22:47 | -2.29074 | 121.58804 | 36930 ft | 473 kts | 137° |
| 2026-05-08 22:48 | -2.33987 | 121.63211 | 36927 ft | 475 kts | 137° |
| 2026-05-08 22:48 | -2.38910 | 121.67626 | 36935 ft | 475 kts | 137° |
| 2026-05-08 22:49 | -2.43800 | 121.72013 | 36935 ft | 475 kts | 137° |
| 2026-05-08 22:49 | -2.51186 | 121.78640 | 36937 ft | 475 kts | 137° |
| 2026-05-08 22:50 | -2.56105 | 121.83054 | 36933 ft | 474 kts | 137° |
| 2026-05-08 22:50 | -2.61015 | 121.87459 | 36936 ft | 474 kts | 137° |
| 2026-05-08 22:51 | -2.65934 | 121.91874 | 36932 ft | 476 kts | 138° |
| 2026-05-08 22:51 | -2.70836 | 121.96276 | 36933 ft | 477 kts | 137° |
| 2026-05-08 22:52 | -2.75777 | 122.00712 | 36934 ft | 477 kts | 137° |
| 2026-05-08 22:52 | -2.80722 | 122.05150 | 36932 ft | 476 kts | 138° |
| 2026-05-08 22:53 | -2.85648 | 122.09574 | 36927 ft | 475 kts | 137° |
| 2026-05-08 22:53 | -2.90562 | 122.13987 | 36927 ft | 474 kts | 137° |
| 2026-05-08 22:54 | -2.95469 | 122.18394 | 36917 ft | 474 kts | 137° |
| 2026-05-08 22:54 | -3.00378 | 122.22803 | 36922 ft | 474 kts | 137° |
| 2026-05-08 22:55 | -3.05288 | 122.27214 | 36923 ft | 474 kts | 137° |
| 2026-05-08 22:55 | -3.10197 | 122.31625 | 36913 ft | 474 kts | 137° |
| 2026-05-08 22:56 | -3.15108 | 122.36038 | 36910 ft | 474 kts | 137° |
| 2026-05-08 22:56 | -3.19999 | 122.40434 | 36906 ft | 471 kts | 137° |
| 2026-05-08 22:57 | -3.24879 | 122.44820 | 36907 ft | 472 kts | 137° |
| 2026-05-08 22:57 | -3.29776 | 122.49222 | 36908 ft | 474 kts | 137° |
| 2026-05-08 22:58 | -3.34678 | 122.53630 | 36906 ft | 474 kts | 137° |
| 2026-05-08 22:58 | -3.39583 | 122.58040 | 36905 ft | 474 kts | 137° |
| 2026-05-08 22:59 | -3.44484 | 122.62448 | 36898 ft | 474 kts | 137° |
| 2026-05-08 22:59 | -3.49354 | 122.66829 | 36903 ft | 473 kts | 137° |
| 2026-05-08 23:00 | -3.54251 | 122.71234 | 36907 ft | 473 kts | 137° |
| 2026-05-08 23:00 | -3.59149 | 122.75640 | 36906 ft | 474 kts | 137° |
| 2026-05-08 23:01 | -3.64047 | 122.80049 | 36904 ft | 474 kts | 137° |
| 2026-05-08 23:01 | -3.68954 | 122.84465 | 36901 ft | 474 kts | 137° |
| 2026-05-08 23:02 | -3.73854 | 122.88875 | 36901 ft | 474 kts | 137° |
| 2026-05-08 23:02 | -3.78748 | 122.93283 | 36900 ft | 473 kts | 138° |
| 2026-05-08 23:03 | -3.83638 | 122.97685 | 36902 ft | 472 kts | 137° |
| 2026-05-08 23:03 | -3.87697 | 123.01340 | 36906 ft | 472 kts | 137° |
| 2026-05-08 23:04 | -3.93384 | 123.06463 | 36901 ft | 473 kts | 137° |
| 2026-05-08 23:04 | -3.97475 | 123.10148 | 36902 ft | 472 kts | 137° |
| 2026-05-08 23:05 | -4.02362 | 123.14551 | 36905 ft | 472 kts | 137° |
| 2026-05-08 23:05 | -4.07252 | 123.18958 | 36905 ft | 472 kts | 138° |
| 2026-05-08 23:06 | -4.12137 | 123.23361 | 36905 ft | 472 kts | 138° |
| 2026-05-08 23:06 | -4.17000 | 123.27744 | 36907 ft | 473 kts | 137° |
| 2026-05-08 23:07 | -4.21897 | 123.32159 | 36906 ft | 474 kts | 137° |
| 2026-05-08 23:07 | -4.26798 | 123.36579 | 36906 ft | 474 kts | 137° |
| 2026-05-08 23:08 | -4.31706 | 123.41006 | 36906 ft | 474 kts | 137° |
| 2026-05-08 23:08 | -4.36600 | 123.45421 | 36905 ft | 473 kts | 137° |
| 2026-05-08 23:09 | -4.41409 | 123.49759 | 36899 ft | 464 kts | 137° |
| 2026-05-08 23:09 | -4.46195 | 123.54079 | 36900 ft | 462 kts | 137° |
| 2026-05-08 23:10 | -4.50993 | 123.58410 | 36905 ft | 465 kts | 137° |
| 2026-05-08 23:10 | -4.55801 | 123.62750 | 36903 ft | 465 kts | 137° |
| 2026-05-08 23:11 | -4.60604 | 123.67087 | 36902 ft | 464 kts | 137° |
| 2026-05-08 23:11 | -4.65401 | 123.71419 | 36899 ft | 464 kts | 137° |
| 2026-05-08 23:12 | -4.70207 | 123.75761 | 36903 ft | 466 kts | 137° |
| 2026-05-08 23:12 | -4.75030 | 123.80118 | 36902 ft | 466 kts | 137° |
| 2026-05-08 23:13 | -4.79826 | 123.84451 | 36903 ft | 468 kts | 137° |
| 2026-05-08 23:13 | -4.84664 | 123.88823 | 36903 ft | 467 kts | 137° |
| 2026-05-08 23:14 | -4.89487 | 123.93184 | 36902 ft | 467 kts | 137° |
| 2026-05-08 23:14 | -4.94320 | 123.97554 | 36903 ft | 468 kts | 137° |
| 2026-05-08 23:15 | -4.99151 | 124.01916 | 36902 ft | 466 kts | 137° |
| 2026-05-08 23:15 | -5.03989 | 124.06246 | 36903 ft | 466 kts | 137° |
| 2026-05-08 23:16 | -5.08831 | 124.10572 | 36903 ft | 468 kts | 138° |
| 2026-05-08 23:16 | -5.13694 | 124.14920 | 36904 ft | 468 kts | 137° |
| 2026-05-08 23:17 | -5.18528 | 124.19245 | 36902 ft | 468 kts | 137° |
| 2026-05-08 23:17 | -5.23392 | 124.23600 | 36901 ft | 468 kts | 137° |
| 2026-05-08 23:18 | -5.28257 | 124.27956 | 36904 ft | 468 kts | 137° |
| 2026-05-08 23:18 | -5.33089 | 124.32284 | 36903 ft | 468 kts | 137° |
| 2026-05-08 23:19 | -5.37965 | 124.36652 | 36903 ft | 470 kts | 138° |
| 2026-05-08 23:19 | -5.42853 | 124.41031 | 36904 ft | 471 kts | 138° |
| 2026-05-08 23:20 | -5.47745 | 124.45418 | 36902 ft | 473 kts | 137° |
| 2026-05-08 23:20 | -5.52679 | 124.49842 | 36901 ft | 477 kts | 137° |
| 2026-05-08 23:21 | -5.57636 | 124.54284 | 36905 ft | 478 kts | 137° |
| 2026-05-08 23:21 | -5.62603 | 124.58735 | 36905 ft | 477 kts | 137° |
| 2026-05-08 23:22 | -5.67563 | 124.63186 | 36907 ft | 479 kts | 137° |
| 2026-05-08 23:22 | -5.72513 | 124.67628 | 36907 ft | 480 kts | 137° |
| 2026-05-08 23:23 | -5.77485 | 124.72079 | 36902 ft | 478 kts | 137° |
| 2026-05-08 23:23 | -5.82426 | 124.76506 | 36906 ft | 475 kts | 137° |
| 2026-05-08 23:24 | -5.87344 | 124.80930 | 36906 ft | 474 kts | 137° |
| 2026-05-08 23:24 | -5.92256 | 124.85352 | 36906 ft | 474 kts | 137° |
| 2026-05-08 23:25 | -5.97179 | 124.89786 | 36909 ft | 477 kts | 137° |
| 2026-05-08 23:25 | -6.02137 | 124.94251 | 36904 ft | 480 kts | 137° |
| 2026-05-08 23:26 | -6.07089 | 124.98703 | 36905 ft | 480 kts | 137° |
| 2026-05-08 23:26 | -6.12065 | 125.03181 | 36904 ft | 479 kts | 137° |
| 2026-05-08 23:27 | -6.17024 | 125.07630 | 36906 ft | 476 kts | 137° |
| 2026-05-08 23:27 | -6.21965 | 125.12063 | 36910 ft | 475 kts | 137° |
| 2026-05-08 23:28 | -6.26886 | 125.16484 | 36906 ft | 475 kts | 137° |
| 2026-05-08 23:28 | -6.31824 | 125.20919 | 36906 ft | 478 kts | 137° |
| 2026-05-08 23:29 | -6.36802 | 125.25406 | 36906 ft | 481 kts | 136° |
| 2026-05-08 23:29 | -6.41754 | 125.29871 | 36908 ft | 481 kts | 136° |
| 2026-05-08 23:30 | -6.46746 | 125.34367 | 36909 ft | 482 kts | 136° |
| 2026-05-08 23:30 | -6.51742 | 125.38870 | 36910 ft | 483 kts | 137° |
| 2026-05-08 23:31 | -6.56728 | 125.43368 | 36906 ft | 478 kts | 137° |
| 2026-05-08 23:31 | -6.61659 | 125.47811 | 36908 ft | 475 kts | 137° |
| 2026-05-08 23:32 | -6.66584 | 125.52250 | 36909 ft | 475 kts | 137° |
| 2026-05-08 23:32 | -6.71496 | 125.56681 | 36908 ft | 474 kts | 137° |
| 2026-05-08 23:33 | -6.76382 | 125.61089 | 36912 ft | 474 kts | 137° |
| 2026-05-08 23:33 | -6.81286 | 125.65515 | 36910 ft | 474 kts | 137° |
| 2026-05-08 23:34 | -6.86211 | 125.69961 | 36911 ft | 475 kts | 137° |
| 2026-05-08 23:34 | -6.91127 | 125.74399 | 36914 ft | 475 kts | 137° |
| 2026-05-08 23:35 | -6.96051 | 125.78847 | 36914 ft | 475 kts | 137° |
| 2026-05-08 23:35 | -7.00961 | 125.83283 | 36914 ft | 474 kts | 137° |
| 2026-05-08 23:36 | -7.05877 | 125.87726 | 36917 ft | 475 kts | 137° |
| 2026-05-08 23:36 | -7.10802 | 125.92180 | 36917 ft | 475 kts | 137° |
| 2026-05-08 23:37 | -7.15724 | 125.96631 | 36913 ft | 476 kts | 137° |
| 2026-05-08 23:37 | -7.20646 | 126.01083 | 36913 ft | 476 kts | 137° |
| 2026-05-08 23:38 | -7.25572 | 126.05540 | 36918 ft | 477 kts | 137° |
| 2026-05-08 23:38 | -7.30483 | 126.09986 | 36916 ft | 476 kts | 137° |
| 2026-05-08 23:39 | -7.35409 | 126.14447 | 36917 ft | 476 kts | 137° |
| 2026-05-08 23:39 | -7.40335 | 126.18908 | 36916 ft | 475 kts | 137° |
| 2026-05-08 23:40 | -7.45261 | 126.23372 | 36919 ft | 475 kts | 137° |
| 2026-05-08 23:40 | -7.50176 | 126.27826 | 36931 ft | 475 kts | 137° |
| 2026-05-08 23:41 | -7.55098 | 126.32288 | 36930 ft | 476 kts | 137° |
| 2026-05-08 23:41 | -7.59991 | 126.36725 | 36941 ft | 476 kts | 137° |
| 2026-05-08 23:42 | -7.64922 | 126.41199 | 36935 ft | 476 kts | 138° |
| 2026-05-08 23:42 | -7.69853 | 126.45677 | 36949 ft | 477 kts | 138° |
| 2026-05-08 23:43 | -7.74786 | 126.50151 | 36946 ft | 478 kts | 139° |
| 2026-05-08 23:43 | -7.79778 | 126.54682 | 36947 ft | 486 kts | 138° |
| 2026-05-08 23:44 | -7.84805 | 126.59250 | 36948 ft | 486 kts | 138° |
| 2026-05-08 23:44 | -7.89775 | 126.63767 | 36946 ft | 483 kts | 138° |
| 2026-05-08 23:45 | -7.94764 | 126.68303 | 36949 ft | 481 kts | 139° |
| 2026-05-08 23:45 | -7.99716 | 126.72806 | 36949 ft | 477 kts | 139° |
| 2026-05-08 23:46 | -8.04630 | 126.77277 | 36946 ft | 477 kts | 139° |
| 2026-05-08 23:46 | -8.09559 | 126.81773 | 36945 ft | 477 kts | 139° |
| 2026-05-08 23:47 | -8.14480 | 126.86272 | 36946 ft | 477 kts | 139° |
| 2026-05-08 23:47 | -8.19400 | 126.90773 | 36946 ft | 477 kts | 139° |
| 2026-05-08 23:48 | -8.24321 | 126.95274 | 36947 ft | 478 kts | 139° |
| 2026-05-08 23:48 | -8.29255 | 126.99788 | 36961 ft | 479 kts | 139° |
| 2026-05-08 23:49 | -8.34195 | 127.04309 | 36952 ft | 480 kts | 139° |
| 2026-05-08 23:49 | -8.39136 | 127.08833 | 36955 ft | 480 kts | 139° |
| 2026-05-08 23:50 | -8.44050 | 127.13333 | 36955 ft | 479 kts | 139° |
| 2026-05-08 23:50 | -8.48991 | 127.17861 | 36959 ft | 480 kts | 139° |
| 2026-05-08 23:51 | -8.53947 | 127.22404 | 36958 ft | 481 kts | 139° |
| 2026-05-08 23:51 | -8.58912 | 127.26955 | 36955 ft | 481 kts | 139° |
| 2026-05-08 23:52 | -8.63034 | 127.30736 | 36953 ft | 481 kts | 139° |
| 2026-05-08 23:52 | -8.68822 | 127.36046 | 36952 ft | 481 kts | 139° |
| 2026-05-08 23:53 | -8.72938 | 127.39824 | 36953 ft | 481 kts | 139° |
| 2026-05-08 23:53 | -8.77893 | 127.44374 | 36950 ft | 481 kts | 139° |
| 2026-05-08 23:54 | -8.82846 | 127.48924 | 36949 ft | 481 kts | 139° |
| 2026-05-08 23:55 | -8.90263 | 127.55740 | 36952 ft | 480 kts | 139° |
| 2026-05-08 23:55 | -8.95214 | 127.60292 | 36953 ft | 480 kts | 139° |
| 2026-05-08 23:56 | -9.00162 | 127.64843 | 36951 ft | 481 kts | 139° |
| 2026-05-08 23:56 | -9.05102 | 127.69388 | 36950 ft | 485 kts | 139° |
| 2026-05-08 23:57 | -9.10090 | 127.73991 | 36947 ft | 485 kts | 139° |
| 2026-05-08 23:57 | -9.15033 | 127.78622 | 36952 ft | 483 kts | 139° |
| 2026-05-08 23:58 | -9.19958 | 127.83259 | 36951 ft | 483 kts | 139° |
| 2026-05-08 23:58 | -9.24882 | 127.87892 | 36952 ft | 483 kts | 139° |
| 2026-05-08 23:59 | -9.29789 | 127.92505 | 36952 ft | 486 kts | 139° |
| 2026-05-08 23:59 | -9.34762 | 127.97181 | 36952 ft | 488 kts | 139° |
| 2026-05-09 00:00 | -9.39749 | 128.01871 | 36952 ft | 488 kts | 139° |
| 2026-05-09 00:00 | -9.44726 | 128.06555 | 36955 ft | 489 kts | 139° |
| 2026-05-09 00:01 | -9.49707 | 128.11245 | 36955 ft | 489 kts | 139° |
| 2026-05-09 00:01 | -9.54686 | 128.15934 | 36954 ft | 489 kts | 139° |
| 2026-05-09 00:02 | -9.59664 | 128.20624 | 36954 ft | 489 kts | 139° |
| 2026-05-09 00:02 | -9.64615 | 128.25291 | 36953 ft | 489 kts | 139° |
| 2026-05-09 00:03 | -9.69599 | 128.29990 | 36954 ft | 489 kts | 139° |
| 2026-05-09 00:03 | -9.74575 | 128.34685 | 36956 ft | 489 kts | 139° |
| 2026-05-09 00:04 | -9.79556 | 128.39386 | 36946 ft | 489 kts | 139° |
| 2026-05-09 00:04 | -9.84549 | 128.44101 | 36968 ft | 490 kts | 139° |
| 2026-05-09 00:05 | -9.89550 | 128.48823 | 36949 ft | 491 kts | 139° |
| 2026-05-09 00:05 | -9.94547 | 128.53546 | 36955 ft | 491 kts | 139° |
| 2026-05-09 00:06 | -9.99540 | 128.58267 | 36954 ft | 491 kts | 139° |
| 2026-05-09 00:06 | -10.04502 | 128.62960 | 36975 ft | 491 kts | 139° |
| 2026-05-09 00:07 | -10.09509 | 128.67697 | 36955 ft | 493 kts | 139° |
| 2026-05-09 00:07 | -10.14538 | 128.72458 | 36959 ft | 494 kts | 139° |
| 2026-05-09 00:08 | -10.19559 | 128.77214 | 36962 ft | 494 kts | 139° |
| 2026-05-09 00:08 | -10.24575 | 128.81967 | 36959 ft | 494 kts | 139° |
| 2026-05-09 00:09 | -10.29596 | 128.86727 | 36963 ft | 494 kts | 139° |
| 2026-05-09 00:09 | -10.34630 | 128.91501 | 36965 ft | 495 kts | 139° |
| 2026-05-09 00:10 | -10.39676 | 128.96289 | 36965 ft | 496 kts | 139° |
| 2026-05-09 00:10 | -10.44683 | 129.01042 | 36962 ft | 496 kts | 139° |
| 2026-05-09 00:11 | -10.49724 | 129.05829 | 36967 ft | 495 kts | 139° |
| 2026-05-09 00:11 | -10.54763 | 129.10618 | 36965 ft | 495 kts | 139° |
| 2026-05-09 00:12 | -10.59812 | 129.15407 | 36964 ft | 497 kts | 140° |
| 2026-05-09 00:12 | -10.65094 | 129.19926 | 36963 ft | 496 kts | 143° |
| 2026-05-09 00:13 | -10.70507 | 129.24277 | 36967 ft | 496 kts | 144° |
| 2026-05-09 00:13 | -10.75920 | 129.28636 | 36965 ft | 496 kts | 144° |
| 2026-05-09 00:14 | -10.81303 | 129.33023 | 36973 ft | 496 kts | 143° |
| 2026-05-09 00:14 | -10.86664 | 129.37417 | 36968 ft | 498 kts | 143° |
| 2026-05-09 00:15 | -10.92057 | 129.41842 | 36964 ft | 498 kts | 143° |
| 2026-05-09 00:15 | -10.97441 | 129.46261 | 36972 ft | 498 kts | 143° |
| 2026-05-09 00:16 | -11.02829 | 129.50684 | 36971 ft | 498 kts | 143° |
| 2026-05-09 00:16 | -11.08220 | 129.55111 | 36978 ft | 498 kts | 143° |
| 2026-05-09 00:17 | -11.13628 | 129.59553 | 36970 ft | 500 kts | 143° |
| 2026-05-09 00:17 | -11.19039 | 129.64001 | 36975 ft | 500 kts | 143° |
| 2026-05-09 00:18 | -11.24444 | 129.68446 | 36976 ft | 499 kts | 143° |
| 2026-05-09 00:18 | -11.29850 | 129.72894 | 36973 ft | 499 kts | 143° |
| 2026-05-09 00:19 | -11.35262 | 129.77350 | 36974 ft | 499 kts | 143° |
| 2026-05-09 00:19 | -11.40661 | 129.81796 | 36974 ft | 499 kts | 143° |
| 2026-05-09 00:20 | -11.46065 | 129.86249 | 36974 ft | 499 kts | 143° |
| 2026-05-09 00:20 | -11.51350 | 129.90762 | 36975 ft | 500 kts | 137° |
| 2026-05-09 00:21 | -11.56210 | 129.95856 | 36979 ft | 501 kts | 135° |
| 2026-05-09 00:21 | -11.60978 | 130.01069 | 36977 ft | 503 kts | 135° |
| 2026-05-09 00:22 | -11.65740 | 130.06319 | 36980 ft | 503 kts | 135° |
| 2026-05-09 00:22 | -11.70500 | 130.11554 | 36979 ft | 503 kts | 135° |
| 2026-05-09 00:23 | -11.75264 | 130.16782 | 36976 ft | 503 kts | 135° |
| 2026-05-09 00:23 | -11.80026 | 130.22006 | 36985 ft | 503 kts | 135° |
| 2026-05-09 00:24 | -11.84768 | 130.27211 | 36982 ft | 505 kts | 135° |
| 2026-05-09 00:24 | -11.89550 | 130.32463 | 36983 ft | 505 kts | 135° |
| 2026-05-09 00:25 | -11.94334 | 130.37721 | 36987 ft | 505 kts | 135° |
| 2026-05-09 00:25 | -11.99110 | 130.42974 | 36987 ft | 505 kts | 135° |
| 2026-05-09 00:26 | -12.03892 | 130.48235 | 36990 ft | 505 kts | 135° |
| 2026-05-09 00:26 | -12.08685 | 130.53511 | 36990 ft | 507 kts | 135° |
| 2026-05-09 00:27 | -12.13475 | 130.58788 | 36992 ft | 507 kts | 135° |
| 2026-05-09 00:27 | -12.18239 | 130.64039 | 36992 ft | 507 kts | 135° |
| 2026-05-09 00:28 | -12.23039 | 130.69332 | 36990 ft | 507 kts | 135° |
| 2026-05-09 00:28 | -12.27825 | 130.74614 | 36995 ft | 508 kts | 135° |
| 2026-05-09 00:29 | -12.32643 | 130.79932 | 36993 ft | 510 kts | 135° |
| 2026-05-09 00:29 | -12.37466 | 130.85260 | 36993 ft | 510 kts | 135° |
| 2026-05-09 00:30 | -12.42430 | 130.90437 | 36991 ft | 507 kts | 144° |
| 2026-05-09 00:30 | -12.48058 | 130.94649 | 36993 ft | 503 kts | 149° |
| 2026-05-09 00:31 | -12.53855 | 130.98677 | 36997 ft | 503 kts | 150° |
| 2026-05-09 00:31 | -12.59679 | 131.02665 | 36998 ft | 503 kts | 150° |
| 2026-05-09 00:32 | -12.65498 | 131.06671 | 37000 ft | 503 kts | 149° |
| 2026-05-09 00:32 | -12.71305 | 131.10689 | 37001 ft | 503 kts | 149° |
| 2026-05-09 00:33 | -12.77082 | 131.14696 | 37001 ft | 504 kts | 149° |
| 2026-05-09 00:33 | -12.82900 | 131.18732 | 37006 ft | 505 kts | 149° |
| 2026-05-09 00:34 | -12.88726 | 131.22776 | 37007 ft | 505 kts | 149° |
| 2026-05-09 00:34 | -12.94543 | 131.26816 | 37007 ft | 505 kts | 149° |
| 2026-05-09 00:35 | -13.00366 | 131.30863 | 37012 ft | 506 kts | 150° |
| 2026-05-09 00:35 | -13.06198 | 131.34917 | 37008 ft | 507 kts | 150° |
| 2026-05-09 00:36 | -13.12004 | 131.38956 | 37012 ft | 507 kts | 149° |
| 2026-05-09 00:36 | -13.17839 | 131.43020 | 37016 ft | 506 kts | 149° |
| 2026-05-09 00:37 | -13.23672 | 131.47085 | 37012 ft | 507 kts | 150° |
| 2026-05-09 00:37 | -13.29511 | 131.51157 | 37017 ft | 507 kts | 150° |
| 2026-05-09 00:38 | -13.35356 | 131.55234 | 37019 ft | 508 kts | 150° |
| 2026-05-09 00:38 | -13.41201 | 131.59314 | 37022 ft | 508 kts | 150° |
| 2026-05-09 00:39 | -13.47051 | 131.63401 | 37031 ft | 508 kts | 150° |
| 2026-05-09 00:39 | -13.52855 | 131.67458 | 37023 ft | 508 kts | 150° |
| 2026-05-09 00:40 | -13.58713 | 131.71555 | 37023 ft | 509 kts | 150° |
| 2026-05-09 00:40 | -13.63611 | 131.74983 | 37024 ft | 509 kts | 150° |
| 2026-05-09 00:41 | -13.72349 | 131.81101 | 37031 ft | 509 kts | 150° |
| 2026-05-09 00:41 | -13.78200 | 131.85202 | 37032 ft | 509 kts | 150° |
| 2026-05-09 00:42 | -13.84052 | 131.89306 | 37031 ft | 509 kts | 150° |
| 2026-05-09 00:42 | -13.89899 | 131.93408 | 37031 ft | 508 kts | 150° |
| 2026-05-09 00:43 | -13.95752 | 131.97518 | 37036 ft | 509 kts | 150° |
| 2026-05-09 00:43 | -14.01609 | 132.01633 | 37034 ft | 510 kts | 150° |
| 2026-05-09 00:44 | -14.07434 | 132.05728 | 37037 ft | 510 kts | 150° |
| 2026-05-09 00:44 | -14.13293 | 132.09850 | 37041 ft | 510 kts | 150° |
| 2026-05-09 00:45 | -14.19158 | 132.13979 | 37047 ft | 510 kts | 150° |
| 2026-05-09 00:45 | -14.25036 | 132.18118 | 37048 ft | 511 kts | 150° |
| 2026-05-09 00:46 | -14.30906 | 132.22256 | 37058 ft | 511 kts | 150° |
| 2026-05-09 00:46 | -14.36766 | 132.26390 | 37067 ft | 511 kts | 150° |
| 2026-05-09 00:47 | -14.42643 | 132.30538 | 37080 ft | 512 kts | 150° |
| 2026-05-09 00:47 | -14.48490 | 132.34666 | 37066 ft | 513 kts | 149° |
| 2026-05-09 00:48 | -14.53745 | 132.39693 | 37064 ft | 520 kts | 132° |
| 2026-05-09 00:48 | -14.58270 | 132.45542 | 37074 ft | 521 kts | 129° |
| 2026-05-09 00:49 | -14.62636 | 132.51531 | 37069 ft | 522 kts | 128° |
| 2026-05-09 00:49 | -14.67004 | 132.57544 | 37067 ft | 524 kts | 129° |
| 2026-05-09 00:50 | -14.71397 | 132.63550 | 37065 ft | 524 kts | 129° |
| 2026-05-09 00:50 | -14.75802 | 132.69548 | 37063 ft | 524 kts | 129° |
| 2026-05-09 00:51 | -14.80182 | 132.75511 | 37058 ft | 524 kts | 129° |
| 2026-05-09 00:51 | -14.84586 | 132.81514 | 37068 ft | 525 kts | 129° |
| 2026-05-09 00:52 | -14.88999 | 132.87534 | 37068 ft | 526 kts | 129° |
| 2026-05-09 00:52 | -14.93414 | 132.93563 | 37068 ft | 526 kts | 129° |
| 2026-05-09 00:53 | -14.97828 | 132.99595 | 37069 ft | 526 kts | 129° |
| 2026-05-09 00:53 | -15.02246 | 133.05637 | 37076 ft | 526 kts | 129° |
| 2026-05-09 00:54 | -15.06663 | 133.11681 | 37073 ft | 527 kts | 129° |
| 2026-05-09 00:54 | -15.11057 | 133.17700 | 37073 ft | 527 kts | 129° |
| 2026-05-09 00:55 | -15.15481 | 133.23764 | 37062 ft | 527 kts | 129° |
| 2026-05-09 00:55 | -15.19900 | 133.29827 | 37069 ft | 527 kts | 129° |
| 2026-05-09 00:56 | -15.24318 | 133.35892 | 37073 ft | 528 kts | 129° |
| 2026-05-09 00:56 | -15.28750 | 133.41981 | 37074 ft | 529 kts | 129° |
| 2026-05-09 00:57 | -15.33184 | 133.48078 | 37072 ft | 529 kts | 128° |
| 2026-05-09 00:57 | -15.37605 | 133.54164 | 37073 ft | 528 kts | 128° |
| 2026-05-09 00:58 | -15.42028 | 133.60255 | 37079 ft | 529 kts | 128° |
| 2026-05-09 00:58 | -15.46462 | 133.66366 | 37073 ft | 531 kts | 128° |
| 2026-05-09 00:59 | -15.50871 | 133.72449 | 37075 ft | 530 kts | 128° |
| 2026-05-09 00:59 | -15.55297 | 133.78560 | 37071 ft | 530 kts | 128° |
| 2026-05-09 01:00 | -15.59727 | 133.84679 | 37083 ft | 530 kts | 128° |
| 2026-05-09 01:00 | -15.64163 | 133.90814 | 37079 ft | 532 kts | 128° |
| 2026-05-09 01:01 | -15.68601 | 133.96955 | 37074 ft | 532 kts | 128° |
| 2026-05-09 01:01 | -15.73040 | 134.03104 | 37073 ft | 532 kts | 128° |
| 2026-05-09 01:02 | -15.77474 | 134.09251 | 37080 ft | 531 kts | 128° |
| 2026-05-09 01:02 | -15.81867 | 134.15346 | 37086 ft | 531 kts | 128° |
| 2026-05-09 01:03 | -15.86292 | 134.21492 | 37081 ft | 531 kts | 128° |
| 2026-05-09 01:03 | -15.90720 | 134.27644 | 37077 ft | 531 kts | 128° |
| 2026-05-09 01:04 | -15.95134 | 134.33783 | 37078 ft | 530 kts | 128° |
| 2026-05-09 01:04 | -15.99558 | 134.39943 | 37082 ft | 532 kts | 128° |
| 2026-05-09 01:05 | -16.03988 | 134.46115 | 37080 ft | 532 kts | 128° |
| 2026-05-09 01:06 | -16.10590 | 134.55333 | 37081 ft | 532 kts | 128° |
| 2026-05-09 01:06 | -16.15005 | 134.61505 | 37104 ft | 532 kts | 128° |
| 2026-05-09 01:07 | -16.19430 | 134.67696 | 37081 ft | 533 kts | 128° |
| 2026-05-09 01:07 | -16.23847 | 134.73880 | 37080 ft | 533 kts | 128° |
| 2026-05-09 01:08 | -16.28265 | 134.80072 | 37086 ft | 533 kts | 128° |
| 2026-05-09 01:08 | -16.32693 | 134.86283 | 37082 ft | 533 kts | 128° |
| 2026-05-09 01:09 | -16.37088 | 134.92452 | 37084 ft | 535 kts | 128° |
| 2026-05-09 01:09 | -16.41529 | 134.98692 | 37091 ft | 536 kts | 128° |
| 2026-05-09 01:10 | -16.45959 | 135.04922 | 37094 ft | 535 kts | 128° |
| 2026-05-09 01:10 | -16.50388 | 135.11156 | 37083 ft | 534 kts | 128° |
| 2026-05-09 01:11 | -16.54813 | 135.17389 | 37091 ft | 534 kts | 128° |
| 2026-05-09 01:11 | -16.59231 | 135.23619 | 37092 ft | 535 kts | 128° |
| 2026-05-09 01:12 | -16.63651 | 135.29855 | 37093 ft | 535 kts | 128° |
| 2026-05-09 01:12 | -16.68087 | 135.36121 | 37095 ft | 537 kts | 128° |
| 2026-05-09 01:13 | -16.72494 | 135.42351 | 37094 ft | 537 kts | 128° |
| 2026-05-09 01:13 | -16.76932 | 135.48630 | 37096 ft | 537 kts | 128° |
| 2026-05-09 01:14 | -16.81363 | 135.54906 | 37097 ft | 537 kts | 128° |
| 2026-05-09 01:14 | -16.85791 | 135.61183 | 37097 ft | 537 kts | 128° |
| 2026-05-09 01:15 | -16.90221 | 135.67468 | 37100 ft | 537 kts | 128° |
| 2026-05-09 01:15 | -16.94645 | 135.73750 | 37095 ft | 537 kts | 128° |
| 2026-05-09 01:16 | -16.99069 | 135.80038 | 37098 ft | 537 kts | 128° |
| 2026-05-09 01:16 | -17.03495 | 135.86336 | 37102 ft | 537 kts | 128° |
| 2026-05-09 01:17 | -17.10110 | 135.95755 | 37098 ft | 539 kts | 128° |
| 2026-05-09 01:17 | -17.14549 | 136.02085 | 37094 ft | 539 kts | 128° |
| 2026-05-09 01:18 | -17.18979 | 136.08407 | 37102 ft | 539 kts | 128° |
| 2026-05-09 01:18 | -17.23402 | 136.14743 | 37100 ft | 539 kts | 127° |
| 2026-05-09 01:19 | -17.27816 | 136.21076 | 37097 ft | 539 kts | 127° |
| 2026-05-09 01:19 | -17.32241 | 136.27417 | 37097 ft | 539 kts | 127° |
| 2026-05-09 01:20 | -17.36659 | 136.33746 | 37106 ft | 539 kts | 127° |
| 2026-05-09 01:20 | -17.41081 | 136.40085 | 37104 ft | 539 kts | 127° |
| 2026-05-09 01:21 | -17.45498 | 136.46424 | 37107 ft | 539 kts | 127° |
| 2026-05-09 01:21 | -17.49917 | 136.52770 | 37106 ft | 540 kts | 127° |
| 2026-05-09 01:22 | -17.54319 | 136.59101 | 37107 ft | 540 kts | 127° |
| 2026-05-09 01:22 | -17.58739 | 136.65462 | 37107 ft | 540 kts | 127° |
| 2026-05-09 01:23 | -17.63159 | 136.71830 | 37108 ft | 540 kts | 127° |
| 2026-05-09 01:23 | -17.67577 | 136.78200 | 37112 ft | 540 kts | 127° |
| 2026-05-09 01:24 | -17.71991 | 136.84572 | 37116 ft | 540 kts | 127° |
| 2026-05-09 01:24 | -17.76407 | 136.90951 | 37116 ft | 540 kts | 127° |
| 2026-05-09 01:25 | -17.80826 | 136.97342 | 37114 ft | 540 kts | 127° |
| 2026-05-09 01:25 | -17.85238 | 137.03729 | 37131 ft | 540 kts | 127° |
| 2026-05-09 01:26 | -17.89652 | 137.10123 | 37117 ft | 541 kts | 127° |
| 2026-05-09 01:26 | -17.94047 | 137.16497 | 37116 ft | 542 kts | 127° |
| 2026-05-09 01:27 | -17.98463 | 137.22909 | 37116 ft | 542 kts | 127° |
| 2026-05-09 01:27 | -18.02883 | 137.29332 | 37124 ft | 542 kts | 127° |
| 2026-05-09 01:28 | -18.07299 | 137.35755 | 37121 ft | 542 kts | 127° |
| 2026-05-09 01:28 | -18.10966 | 137.41094 | 37122 ft | 542 kts | 127° |
| 2026-05-09 01:29 | -18.15375 | 137.47519 | 37125 ft | 542 kts | 127° |
| 2026-05-09 01:29 | -18.19785 | 137.53951 | 37123 ft | 542 kts | 127° |
| 2026-05-09 01:30 | -18.24192 | 137.60386 | 37130 ft | 542 kts | 127° |
| 2026-05-09 01:30 | -18.28600 | 137.66830 | 37133 ft | 543 kts | 127° |
| 2026-05-09 01:31 | -18.33016 | 137.73290 | 37129 ft | 544 kts | 127° |
| 2026-05-09 01:31 | -18.37434 | 137.79759 | 37131 ft | 544 kts | 127° |
| 2026-05-09 01:32 | -18.41845 | 137.86225 | 37129 ft | 544 kts | 127° |
| 2026-05-09 01:32 | -18.46260 | 137.92704 | 37129 ft | 544 kts | 127° |
| 2026-05-09 01:33 | -18.50670 | 137.99182 | 37128 ft | 544 kts | 127° |
| 2026-05-09 01:33 | -18.55048 | 138.05621 | 37138 ft | 544 kts | 127° |
| 2026-05-09 01:34 | -18.59454 | 138.12106 | 37135 ft | 543 kts | 127° |
| 2026-05-09 01:34 | -18.63867 | 138.18609 | 37135 ft | 543 kts | 127° |
| 2026-05-09 01:35 | -18.68240 | 138.25060 | 37134 ft | 544 kts | 127° |
| 2026-05-09 01:35 | -18.72634 | 138.31549 | 37135 ft | 545 kts | 127° |
| 2026-05-09 01:36 | -18.77049 | 138.38075 | 37139 ft | 546 kts | 127° |
| 2026-05-09 01:36 | -18.81453 | 138.44592 | 37138 ft | 546 kts | 127° |
| 2026-05-09 01:37 | -18.85857 | 138.51116 | 37130 ft | 546 kts | 127° |
| 2026-05-09 01:37 | -18.90264 | 138.57652 | 37134 ft | 546 kts | 127° |
| 2026-05-09 01:38 | -18.94676 | 138.64202 | 37133 ft | 546 kts | 127° |
| 2026-05-09 01:38 | -18.99082 | 138.70749 | 37132 ft | 546 kts | 127° |
| 2026-05-09 01:39 | -19.03479 | 138.77289 | 37134 ft | 546 kts | 127° |
| 2026-05-09 01:39 | -19.07883 | 138.83847 | 37131 ft | 546 kts | 127° |
| 2026-05-09 01:40 | -19.12246 | 138.90349 | 37132 ft | 546 kts | 127° |
| 2026-05-09 01:40 | -19.16637 | 138.96901 | 37131 ft | 546 kts | 127° |
| 2026-05-09 01:41 | -19.21027 | 139.03457 | 37134 ft | 546 kts | 127° |
| 2026-05-09 01:41 | -19.25409 | 139.10014 | 37130 ft | 546 kts | 126° |
| 2026-05-09 01:42 | -19.29795 | 139.16585 | 37139 ft | 545 kts | 127° |
| 2026-05-09 01:42 | -19.34160 | 139.23100 | 37135 ft | 545 kts | 127° |
| 2026-05-09 01:43 | -19.38547 | 139.29656 | 37133 ft | 545 kts | 127° |
| 2026-05-09 01:43 | -19.42930 | 139.36229 | 37137 ft | 546 kts | 127° |
| 2026-05-09 01:44 | -19.47306 | 139.42807 | 37134 ft | 546 kts | 127° |
| 2026-05-09 01:44 | -19.51681 | 139.49393 | 37133 ft | 546 kts | 127° |
| 2026-05-09 01:45 | -19.56051 | 139.55977 | 37147 ft | 546 kts | 127° |
| 2026-05-09 01:45 | -19.60418 | 139.62563 | 37141 ft | 547 kts | 127° |
| 2026-05-09 01:46 | -19.64797 | 139.69174 | 37141 ft | 547 kts | 127° |
| 2026-05-09 01:46 | -19.69139 | 139.75739 | 37143 ft | 547 kts | 127° |
| 2026-05-09 01:47 | -19.73510 | 139.82353 | 37144 ft | 547 kts | 127° |
| 2026-05-09 01:47 | -19.77874 | 139.88966 | 37149 ft | 547 kts | 127° |
| 2026-05-09 01:48 | -19.82237 | 139.95586 | 37146 ft | 546 kts | 126° |
| 2026-05-09 01:48 | -19.86597 | 140.02207 | 37146 ft | 547 kts | 127° |
| 2026-05-09 01:49 | -19.90927 | 140.08789 | 37148 ft | 547 kts | 126° |
| 2026-05-09 01:49 | -19.95286 | 140.15424 | 37150 ft | 547 kts | 126° |
| 2026-05-09 01:50 | -19.99643 | 140.22063 | 37167 ft | 547 kts | 126° |
| 2026-05-09 01:50 | -20.04009 | 140.28722 | 37149 ft | 549 kts | 126° |
| 2026-05-09 01:51 | -20.08372 | 140.35386 | 37154 ft | 549 kts | 126° |
| 2026-05-09 01:51 | -20.12708 | 140.42015 | 37152 ft | 549 kts | 126° |
| 2026-05-09 01:52 | -20.17069 | 140.48690 | 37156 ft | 549 kts | 126° |
| 2026-05-09 01:52 | -20.21431 | 140.55374 | 37156 ft | 549 kts | 126° |
| 2026-05-09 01:53 | -20.25792 | 140.62065 | 37162 ft | 549 kts | 126° |
| 2026-05-09 01:53 | -20.30150 | 140.68759 | 37147 ft | 549 kts | 126° |
| 2026-05-09 01:54 | -20.34504 | 140.75453 | 37159 ft | 549 kts | 126° |
| 2026-05-09 01:54 | -20.38835 | 140.82119 | 37156 ft | 549 kts | 126° |
| 2026-05-09 01:55 | -20.43185 | 140.88822 | 37160 ft | 549 kts | 126° |
| 2026-05-09 01:55 | -20.47539 | 140.95539 | 37153 ft | 550 kts | 126° |
| 2026-05-09 01:56 | -20.51890 | 141.02259 | 37159 ft | 551 kts | 126° |
| 2026-05-09 01:56 | -20.56069 | 141.08740 | 37150 ft | 536 kts | 126° |
| 2026-05-09 01:57 | -20.58154 | 141.11984 | 37150 ft | 523 kts | 126° |
| 2026-05-09 01:57 | -20.60185 | 141.15142 | 37151 ft | 510 kts | 126° |
| 2026-05-09 01:57 | -20.62171 | 141.18226 | 37150 ft | 497 kts | 126° |
| 2026-05-09 01:57 | -20.64109 | 141.21232 | 37149 ft | 485 kts | 126° |
| 2026-05-09 01:58 | -20.65991 | 141.24151 | 37149 ft | 472 kts | 126° |
| 2026-05-09 01:58 | -20.67836 | 141.27011 | 37145 ft | 460 kts | 126° |
| 2026-05-09 01:58 | -20.69599 | 141.29746 | 37144 ft | 447 kts | 126° |
| 2026-05-09 01:58 | -20.71340 | 141.32448 | 37141 ft | 435 kts | 127° |
| 2026-05-09 01:59 | -20.73027 | 141.35068 | 37144 ft | 422 kts | 127° |
| 2026-05-09 01:59 | -20.74638 | 141.37673 | 37129 ft | 422 kts | 120° |
| 2026-05-09 01:59 | -20.77137 | 141.43368 | 37411 ft | 421 kts | 103° |
| 2026-05-09 02:00 | -20.78156 | 141.46374 | 36916 ft | 442 kts | 108° |
| 2026-05-09 02:00 | -20.79183 | 141.49544 | 36515 ft | 461 kts | 106° |
| 2026-05-09 02:00 | -20.80190 | 141.52875 | 36180 ft | 478 kts | 105° |
| 2026-05-09 02:00 | -20.81362 | 141.56195 | 36084 ft | 489 kts | 120° |
| 2026-05-09 02:01 | -20.83219 | 141.59217 | 36249 ft | 487 kts | 130° |
| 2026-05-09 02:01 | -20.85330 | 141.62055 | 36447 ft | 487 kts | 132° |
| 2026-05-09 02:01 | -20.87467 | 141.64878 | 36638 ft | 489 kts | 131° |
| 2026-05-09 02:01 | -20.89547 | 141.67772 | 36840 ft | 491 kts | 129° |
| 2026-05-09 02:02 | -20.91544 | 141.70745 | 37065 ft | 493 kts | 126° |
| 2026-05-09 02:02 | -20.93477 | 141.73791 | 37263 ft | 495 kts | 125° |
| 2026-05-09 02:02 | -20.95362 | 141.76876 | 37422 ft | 497 kts | 124° |
| 2026-05-09 02:02 | -20.97253 | 141.80031 | 37168 ft | 510 kts | 123° |
| 2026-05-09 02:03 | -21.01114 | 141.86539 | 37164 ft | 524 kts | 123° |
| 2026-05-09 02:03 | -21.05083 | 141.93217 | 37163 ft | 538 kts | 123° |
| 2026-05-09 02:04 | -21.09159 | 142.00053 | 37164 ft | 551 kts | 123° |
| 2026-05-09 02:04 | -21.13337 | 142.07058 | 37166 ft | 565 kts | 123° |
| 2026-05-09 02:05 | -21.17586 | 142.14190 | 37162 ft | 578 kts | 123° |
| 2026-05-09 02:05 | -21.21946 | 142.21519 | 37167 ft | 589 kts | 123° |
| 2026-05-09 02:06 | -21.26364 | 142.28958 | 37162 ft | 592 kts | 123° |
| 2026-05-09 02:07 | -21.32918 | 142.40067 | 37157 ft | 572 kts | 123° |
| 2026-05-09 02:07 | -21.35031 | 142.43623 | 37157 ft | 558 kts | 124° |
| 2026-05-09 02:07 | -21.37103 | 142.47109 | 37190 ft | 552 kts | 123° |
| 2026-05-09 02:08 | -21.41225 | 142.54051 | 37165 ft | 553 kts | 123° |
| 2026-05-09 02:08 | -21.45357 | 142.61035 | 37166 ft | 553 kts | 123° |
| 2026-05-09 02:09 | -21.49453 | 142.67976 | 37167 ft | 553 kts | 123° |
| 2026-05-09 02:09 | -21.53569 | 142.74963 | 37170 ft | 553 kts | 123° |
| 2026-05-09 02:10 | -21.57683 | 142.81956 | 37174 ft | 553 kts | 123° |
| 2026-05-09 02:10 | -21.61795 | 142.88952 | 37174 ft | 553 kts | 123° |
| 2026-05-09 02:11 | -21.65902 | 142.95949 | 37173 ft | 553 kts | 123° |
| 2026-05-09 02:11 | -21.70006 | 143.02951 | 37182 ft | 553 kts | 123° |
| 2026-05-09 02:12 | -21.74080 | 143.09908 | 37174 ft | 553 kts | 123° |
| 2026-05-09 02:12 | -21.78184 | 143.16927 | 37177 ft | 554 kts | 123° |
| 2026-05-09 02:13 | -21.82285 | 143.23948 | 37172 ft | 554 kts | 123° |
| 2026-05-09 02:13 | -21.86378 | 143.30966 | 37174 ft | 555 kts | 123° |
| 2026-05-09 02:14 | -21.90490 | 143.38023 | 37175 ft | 556 kts | 123° |
| 2026-05-09 02:14 | -21.94603 | 143.45094 | 37199 ft | 556 kts | 123° |
| 2026-05-09 02:15 | -21.98703 | 143.52151 | 37184 ft | 556 kts | 123° |
| 2026-05-09 02:15 | -22.02784 | 143.59182 | 37183 ft | 556 kts | 123° |
| 2026-05-09 02:16 | -22.06880 | 143.66250 | 37185 ft | 556 kts | 123° |
| 2026-05-09 02:16 | -22.10974 | 143.73323 | 37184 ft | 556 kts | 123° |
| 2026-05-09 02:17 | -22.14375 | 143.79206 | 37203 ft | 556 kts | 123° |
| 2026-05-09 02:17 | -22.18469 | 143.86297 | 37185 ft | 556 kts | 123° |
| 2026-05-09 02:18 | -22.22551 | 143.93376 | 37186 ft | 556 kts | 123° |
| 2026-05-09 02:18 | -22.26634 | 144.00467 | 37186 ft | 556 kts | 123° |
| 2026-05-09 02:19 | -22.30713 | 144.07560 | 37187 ft | 556 kts | 123° |
| 2026-05-09 02:19 | -22.34798 | 144.14672 | 37192 ft | 558 kts | 123° |
| 2026-05-09 02:20 | -22.38887 | 144.21801 | 37186 ft | 559 kts | 123° |
| 2026-05-09 02:20 | -22.42982 | 144.28951 | 37189 ft | 559 kts | 123° |
| 2026-05-09 02:21 | -22.47043 | 144.36052 | 37191 ft | 559 kts | 123° |
| 2026-05-09 02:21 | -22.51126 | 144.43201 | 37190 ft | 558 kts | 123° |
| 2026-05-09 02:22 | -22.55204 | 144.50349 | 37189 ft | 558 kts | 123° |
| 2026-05-09 02:22 | -22.59282 | 144.57510 | 37190 ft | 558 kts | 123° |
| 2026-05-09 02:23 | -22.63366 | 144.64689 | 37190 ft | 558 kts | 123° |
| 2026-05-09 02:23 | -22.67435 | 144.71855 | 37190 ft | 558 kts | 123° |
| 2026-05-09 02:24 | -22.71503 | 144.79027 | 37190 ft | 559 kts | 123° |
| 2026-05-09 02:24 | -22.75563 | 144.86195 | 37191 ft | 559 kts | 123° |
| 2026-05-09 02:25 | -22.79596 | 144.93327 | 37196 ft | 559 kts | 123° |
| 2026-05-09 02:25 | -22.83661 | 145.00524 | 37189 ft | 560 kts | 123° |
| 2026-05-09 02:26 | -22.87730 | 145.07739 | 37188 ft | 561 kts | 123° |
| 2026-05-09 02:26 | -22.91801 | 145.14966 | 37189 ft | 561 kts | 123° |
| 2026-05-09 02:27 | -22.95862 | 145.22187 | 37182 ft | 561 kts | 123° |
| 2026-05-09 02:27 | -22.99922 | 145.29416 | 37186 ft | 561 kts | 123° |
| 2026-05-09 02:28 | -23.03983 | 145.36658 | 37187 ft | 560 kts | 123° |
| 2026-05-09 02:28 | -23.08039 | 145.43899 | 37189 ft | 561 kts | 123° |
| 2026-05-09 02:29 | -23.12069 | 145.51104 | 37188 ft | 561 kts | 123° |
| 2026-05-09 02:29 | -23.16111 | 145.58344 | 37189 ft | 561 kts | 123° |
| 2026-05-09 02:30 | -23.20159 | 145.65602 | 37190 ft | 560 kts | 123° |
| 2026-05-09 02:30 | -23.24197 | 145.72853 | 37192 ft | 561 kts | 123° |
| 2026-05-09 02:31 | -23.28237 | 145.80117 | 37198 ft | 561 kts | 123° |
| 2026-05-09 02:31 | -23.32278 | 145.87393 | 37192 ft | 563 kts | 123° |
| 2026-05-09 02:32 | -23.36300 | 145.94645 | 37191 ft | 563 kts | 123° |
| 2026-05-09 02:32 | -23.40344 | 146.01947 | 37193 ft | 563 kts | 123° |
| 2026-05-09 02:33 | -23.44388 | 146.09261 | 37190 ft | 563 kts | 123° |
| 2026-05-09 02:33 | -23.48427 | 146.16574 | 37195 ft | 563 kts | 123° |
| 2026-05-09 02:34 | -23.52453 | 146.23893 | 37197 ft | 563 kts | 123° |
| 2026-05-09 02:34 | -23.56462 | 146.31166 | 37196 ft | 563 kts | 123° |
| 2026-05-09 02:35 | -23.60489 | 146.38482 | 37194 ft | 563 kts | 123° |
| 2026-05-09 02:35 | -23.64514 | 146.45810 | 37194 ft | 563 kts | 123° |
| 2026-05-09 02:36 | -23.68535 | 146.53144 | 37196 ft | 563 kts | 123° |
| 2026-05-09 02:36 | -23.72555 | 146.60490 | 37198 ft | 563 kts | 123° |
| 2026-05-09 02:37 | -23.76569 | 146.67833 | 37200 ft | 563 kts | 123° |
| 2026-05-09 02:37 | -23.80578 | 146.75181 | 37198 ft | 563 kts | 123° |
| 2026-05-09 02:38 | -23.84559 | 146.82487 | 37196 ft | 563 kts | 123° |
| 2026-05-09 02:38 | -23.88561 | 146.89842 | 37201 ft | 563 kts | 123° |
| 2026-05-09 02:39 | -23.92562 | 146.97205 | 37198 ft | 563 kts | 123° |
| 2026-05-09 02:39 | -23.96561 | 147.04577 | 37200 ft | 563 kts | 123° |
| 2026-05-09 02:40 | -24.00556 | 147.11952 | 37199 ft | 563 kts | 123° |
| 2026-05-09 02:40 | -24.04543 | 147.19324 | 37203 ft | 563 kts | 123° |
| 2026-05-09 02:41 | -24.08534 | 147.26714 | 37204 ft | 563 kts | 123° |
| 2026-05-09 02:41 | -24.12522 | 147.34111 | 37203 ft | 563 kts | 123° |
| 2026-05-09 02:42 | -24.16495 | 147.41493 | 37199 ft | 563 kts | 123° |
| 2026-05-09 02:42 | -24.20475 | 147.48896 | 37199 ft | 563 kts | 123° |
| 2026-05-09 02:43 | -24.24425 | 147.56257 | 37195 ft | 564 kts | 123° |
| 2026-05-09 02:43 | -24.28412 | 147.63696 | 37194 ft | 565 kts | 123° |
| 2026-05-09 02:44 | -24.32392 | 147.71136 | 37192 ft | 566 kts | 123° |
| 2026-05-09 02:44 | -24.36369 | 147.78581 | 37193 ft | 566 kts | 123° |
| 2026-05-09 02:45 | -24.40349 | 147.86042 | 37192 ft | 566 kts | 123° |
| 2026-05-09 02:45 | -24.44326 | 147.93509 | 37196 ft | 566 kts | 123° |
| 2026-05-09 02:46 | -24.48261 | 148.00908 | 37197 ft | 566 kts | 123° |
| 2026-05-09 02:46 | -24.52228 | 148.08376 | 37200 ft | 566 kts | 123° |
| 2026-05-09 02:47 | -24.56199 | 148.15867 | 37200 ft | 566 kts | 123° |
| 2026-05-09 02:47 | -24.60150 | 148.23339 | 37204 ft | 566 kts | 124° |
| 2026-05-09 02:48 | -24.64104 | 148.30813 | 37205 ft | 565 kts | 123° |
| 2026-05-09 02:48 | -24.68055 | 148.38296 | 37202 ft | 565 kts | 123° |
| 2026-05-09 02:49 | -24.71995 | 148.45778 | 37209 ft | 566 kts | 124° |
| 2026-05-09 02:49 | -24.75944 | 148.53286 | 37200 ft | 568 kts | 124° |
| 2026-05-09 02:50 | -24.79872 | 148.60764 | 37195 ft | 568 kts | 124° |
| 2026-05-09 02:50 | -24.83828 | 148.68309 | 37196 ft | 568 kts | 124° |
| 2026-05-09 02:51 | -24.87773 | 148.75847 | 37186 ft | 568 kts | 124° |
| 2026-05-09 02:51 | -24.91710 | 148.83380 | 37194 ft | 568 kts | 124° |
| 2026-05-09 02:52 | -24.95626 | 148.90884 | 37194 ft | 568 kts | 124° |
| 2026-05-09 02:52 | -24.99559 | 148.98430 | 37194 ft | 568 kts | 124° |
| 2026-05-09 02:53 | -25.03487 | 149.05978 | 37211 ft | 568 kts | 124° |
| 2026-05-09 02:53 | -25.07414 | 149.13541 | 37206 ft | 568 kts | 124° |
| 2026-05-09 02:54 | -25.11333 | 149.21103 | 37206 ft | 568 kts | 124° |
| 2026-05-09 02:54 | -25.15259 | 149.28689 | 37206 ft | 568 kts | 124° |
| 2026-05-09 02:55 | -25.19183 | 149.36282 | 37230 ft | 568 kts | 124° |
| 2026-05-09 02:55 | -25.23096 | 149.43868 | 37209 ft | 569 kts | 124° |
| 2026-05-09 02:56 | -25.27008 | 149.51459 | 37212 ft | 569 kts | 124° |
| 2026-05-09 02:56 | -25.30892 | 149.59008 | 37212 ft | 569 kts | 124° |
| 2026-05-09 02:57 | -25.34806 | 149.66627 | 37216 ft | 570 kts | 124° |
| 2026-05-09 02:57 | -25.38715 | 149.74254 | 37213 ft | 570 kts | 124° |
| 2026-05-09 02:58 | -25.42623 | 149.81891 | 37212 ft | 570 kts | 124° |
| 2026-05-09 02:58 | -25.46527 | 149.89535 | 37213 ft | 570 kts | 124° |
| 2026-05-09 02:59 | -25.50428 | 149.97182 | 37203 ft | 571 kts | 124° |
| 2026-05-09 02:59 | -25.54321 | 150.04827 | 37202 ft | 570 kts | 124° |
| 2026-05-09 03:00 | -25.58217 | 150.12491 | 37204 ft | 570 kts | 124° |
| 2026-05-09 03:00 | -25.62103 | 150.20147 | 37212 ft | 570 kts | 124° |
| 2026-05-09 03:01 | -25.65991 | 150.27821 | 37206 ft | 571 kts | 124° |
| 2026-05-09 03:01 | -25.69878 | 150.35509 | 37200 ft | 570 kts | 124° |
| 2026-05-09 03:02 | -25.73809 | 150.43076 | 37203 ft | 570 kts | 126° |
| 2026-05-09 03:02 | -25.77831 | 150.50635 | 37208 ft | 569 kts | 126° |
| 2026-05-09 03:03 | -25.81851 | 150.58229 | 37170 ft | 571 kts | 126° |
| 2026-05-09 03:03 | -25.83869 | 150.62049 | 36919 ft | 575 kts | 126° |
| 2026-05-09 03:03 | -25.85894 | 150.65889 | 36676 ft | 576 kts | 125° |
| 2026-05-09 03:03 | -25.87229 | 150.68424 | 36507 ft | 576 kts | 125° |
| 2026-05-09 03:04 | -25.89939 | 150.73575 | 36200 ft | 576 kts | 125° |
| 2026-05-09 03:04 | -25.91277 | 150.76122 | 36045 ft | 576 kts | 125° |
| 2026-05-09 03:04 | -25.92908 | 150.79228 | 35860 ft | 576 kts | 125° |
| 2026-05-09 03:04 | -25.94918 | 150.83060 | 35627 ft | 575 kts | 125° |
| 2026-05-09 03:05 | -25.96938 | 150.86911 | 35394 ft | 575 kts | 125° |
| 2026-05-09 03:05 | -25.98957 | 150.90766 | 35240 ft | 575 kts | 125° |
| 2026-05-09 03:05 | -26.00971 | 150.94612 | 35203 ft | 575 kts | 125° |
| 2026-05-09 03:06 | -26.04991 | 151.02300 | 35216 ft | 575 kts | 125° |
| 2026-05-09 03:06 | -26.09011 | 151.10002 | 35207 ft | 575 kts | 125° |
| 2026-05-09 03:07 | -26.13025 | 151.17705 | 35206 ft | 575 kts | 125° |
| 2026-05-09 03:07 | -26.17023 | 151.25392 | 35211 ft | 572 kts | 125° |
| 2026-05-09 03:08 | -26.20962 | 151.33012 | 35211 ft | 571 kts | 124° |
| 2026-05-09 03:08 | -26.24846 | 151.40745 | 35212 ft | 572 kts | 124° |
| 2026-05-09 03:09 | -26.28734 | 151.48493 | 35211 ft | 572 kts | 124° |
| 2026-05-09 03:09 | -26.32625 | 151.56242 | 35207 ft | 572 kts | 124° |
| 2026-05-09 03:10 | -26.36502 | 151.63979 | 35218 ft | 572 kts | 124° |
| 2026-05-09 03:10 | -26.40346 | 151.71669 | 35199 ft | 552 kts | 124° |
| 2026-05-09 03:10 | -26.42168 | 151.75331 | 35197 ft | 526 kts | 124° |
| 2026-05-09 03:11 | -26.43906 | 151.78823 | 35176 ft | 503 kts | 125° |
| 2026-05-09 03:11 | -26.45588 | 151.82192 | 34711 ft | 494 kts | 125° |
| 2026-05-09 03:11 | -26.47260 | 151.85529 | 34008 ft | 492 kts | 125° |
| 2026-05-09 03:11 | -26.48930 | 151.88867 | 33211 ft | 491 kts | 124° |
| 2026-05-09 03:12 | -26.50584 | 151.92179 | 32445 ft | 488 kts | 124° |
| 2026-05-09 03:12 | -26.52226 | 151.95474 | 31716 ft | 485 kts | 124° |
| 2026-05-09 03:12 | -26.53864 | 151.98766 | 30961 ft | 481 kts | 124° |
| 2026-05-09 03:12 | -26.55461 | 152.01978 | 30250 ft | 477 kts | 124° |
| 2026-05-09 03:13 | -26.58651 | 152.08403 | 28585 ft | 467 kts | 123° |
| 2026-05-09 03:13 | -26.60211 | 152.11550 | 27790 ft | 462 kts | 123° |
| 2026-05-09 03:13 | -26.61737 | 152.14676 | 27036 ft | 454 kts | 123° |
| 2026-05-09 03:14 | -26.63255 | 152.17734 | 26297 ft | 446 kts | 123° |
| 2026-05-09 03:14 | -26.64754 | 152.20736 | 25562 ft | 439 kts | 122° |
| 2026-05-09 03:14 | -26.66190 | 152.23621 | 24857 ft | 432 kts | 122° |
| 2026-05-09 03:14 | -26.67638 | 152.26537 | 24157 ft | 424 kts | 120° |
| 2026-05-09 03:15 | -26.69035 | 152.29401 | 23401 ft | 416 kts | 120° |
| 2026-05-09 03:15 | -26.70370 | 152.32141 | 22597 ft | 409 kts | 120° |
| 2026-05-09 03:15 | -26.71734 | 152.34931 | 21796 ft | 401 kts | 120° |
| 2026-05-09 03:15 | -26.73065 | 152.37644 | 21019 ft | 395 kts | 120° |
| 2026-05-09 03:16 | -26.74375 | 152.40310 | 20254 ft | 387 kts | 121° |
| 2026-05-09 03:16 | -26.75649 | 152.42889 | 19530 ft | 381 kts | 120° |
| 2026-05-09 03:16 | -26.76917 | 152.45470 | 18805 ft | 375 kts | 120° |
| 2026-05-09 03:16 | -26.78165 | 152.48010 | 18036 ft | 370 kts | 120° |
| 2026-05-09 03:17 | -26.79376 | 152.50475 | 17247 ft | 364 kts | 120° |
| 2026-05-09 03:17 | -26.80590 | 152.52948 | 16464 ft | 358 kts | 120° |
| 2026-05-09 03:17 | -26.81779 | 152.55373 | 15686 ft | 352 kts | 120° |
| 2026-05-09 03:17 | -26.82944 | 152.57748 | 14947 ft | 345 kts | 120° |
| 2026-05-09 03:18 | -26.84092 | 152.60089 | 14225 ft | 339 kts | 120° |
| 2026-05-09 03:18 | -26.85217 | 152.62383 | 13448 ft | 333 kts | 121° |
| 2026-05-09 03:18 | -26.86332 | 152.64628 | 12669 ft | 327 kts | 121° |
| 2026-05-09 03:18 | -26.87429 | 152.66836 | 11895 ft | 322 kts | 121° |
| 2026-05-09 03:19 | -26.88492 | 152.68986 | 11157 ft | 317 kts | 120° |
| 2026-05-09 03:19 | -26.89566 | 152.71167 | 10417 ft | 312 kts | 121° |
| 2026-05-09 03:19 | -26.90591 | 152.73256 | 9658 ft | 309 kts | 120° |
| 2026-05-09 03:19 | -26.91616 | 152.75353 | 8873 ft | 304 kts | 120° |
| 2026-05-09 03:20 | -26.92625 | 152.77418 | 8111 ft | 299 kts | 121° |
| 2026-05-09 03:20 | -26.93608 | 152.79432 | 7628 ft | 287 kts | 120° |
| 2026-05-09 03:20 | -26.94549 | 152.81362 | 7452 ft | 282 kts | 120° |
| 2026-05-09 03:20 | -26.95497 | 152.83301 | 7352 ft | 284 kts | 120° |
| 2026-05-09 03:21 | -26.96443 | 152.85237 | 7216 ft | 282 kts | 120° |
| 2026-05-09 03:21 | -26.97383 | 152.87162 | 6978 ft | 280 kts | 120° |
| 2026-05-09 03:21 | -26.98315 | 152.89074 | 6816 ft | 279 kts | 120° |
| 2026-05-09 03:21 | -26.99245 | 152.90986 | 6654 ft | 279 kts | 120° |
| 2026-05-09 03:22 | -27.00159 | 152.92866 | 6472 ft | 278 kts | 120° |
| 2026-05-09 03:22 | -27.01093 | 152.94782 | 6304 ft | 277 kts | 120° |
| 2026-05-09 03:22 | -27.02004 | 152.96653 | 6128 ft | 276 kts | 119° |
| 2026-05-09 03:22 | -27.02920 | 152.98540 | 5942 ft | 274 kts | 120° |
| 2026-05-09 03:23 | -27.03828 | 153.00411 | 5772 ft | 272 kts | 119° |
| 2026-05-09 03:23 | -27.04725 | 153.02257 | 5603 ft | 266 kts | 119° |
| 2026-05-09 03:23 | -27.05599 | 153.04057 | 5399 ft | 258 kts | 119° |
| 2026-05-09 03:23 | -27.06443 | 153.05795 | 5237 ft | 250 kts | 118° |
| 2026-05-09 03:24 | -27.07264 | 153.07485 | 5047 ft | 243 kts | 118° |
| 2026-05-09 03:24 | -27.08064 | 153.09135 | 4877 ft | 237 kts | 117° |
| 2026-05-09 03:24 | -27.08825 | 153.10704 | 4697 ft | 233 kts | 118° |
| 2026-05-09 03:24 | -27.09589 | 153.12281 | 4511 ft | 228 kts | 118° |
| 2026-05-09 03:25 | -27.10337 | 153.13824 | 4331 ft | 222 kts | 118° |
| 2026-05-09 03:25 | -27.11064 | 153.15323 | 4150 ft | 215 kts | 118° |
| 2026-05-09 03:25 | -27.11759 | 153.16760 | 3967 ft | 203 kts | 118° |
| 2026-05-09 03:25 | -27.12409 | 153.18101 | 3828 ft | 190 kts | 118° |
| 2026-05-09 03:26 | -27.13026 | 153.19376 | 3659 ft | 183 kts | 118° |
| 2026-05-09 03:26 | -27.13631 | 153.20628 | 3480 ft | 181 kts | 118° |
| 2026-05-09 03:26 | -27.14231 | 153.21868 | 3307 ft | 181 kts | 119° |
| 2026-05-09 03:26 | -27.14825 | 153.23092 | 3131 ft | 180 kts | 120° |
| 2026-05-09 03:27 | -27.15591 | 153.24210 | 2986 ft | 179 kts | 139° |
| 2026-05-09 03:27 | -27.16702 | 153.24785 | 2968 ft | 181 kts | 169° |
| 2026-05-09 03:27 | -27.17951 | 153.24602 | 2970 ft | 185 kts | 197° |
| 2026-05-09 03:27 | -27.19124 | 153.23997 | 2972 ft | 186 kts | 204° |
| 2026-05-09 03:28 | -27.20268 | 153.23320 | 2969 ft | 186 kts | 205° |
| 2026-05-09 03:28 | -27.21409 | 153.22644 | 2971 ft | 185 kts | 205° |
| 2026-05-09 03:28 | -27.22554 | 153.21977 | 2968 ft | 185 kts | 204° |
| 2026-05-09 03:28 | -27.23692 | 153.21320 | 2967 ft | 185 kts | 204° |
| 2026-05-09 03:29 | -27.24843 | 153.20658 | 2968 ft | 185 kts | 204° |
| 2026-05-09 03:29 | -27.25988 | 153.20001 | 2968 ft | 186 kts | 204° |
| 2026-05-09 03:29 | -27.27147 | 153.19339 | 2971 ft | 186 kts | 204° |
| 2026-05-09 03:29 | -27.28304 | 153.18680 | 2968 ft | 186 kts | 204° |
| 2026-05-09 03:30 | -27.29458 | 153.18021 | 2902 ft | 187 kts | 206° |
| 2026-05-09 03:30 | -27.30622 | 153.17350 | 2579 ft | 189 kts | 203° |
| 2026-05-09 03:30 | -27.31778 | 153.16720 | 2290 ft | 185 kts | 203° |
| 2026-05-09 03:30 | -27.32894 | 153.16060 | 1864 ft | 177 kts | 207° |
| 2026-05-09 03:31 | -27.34015 | 153.15406 | 1130 ft | 183 kts | 204° |
| 2026-05-09 03:31 | -27.35123 | 153.14776 | 783 ft | 167 kts | 205° |
| 2026-05-09 03:31 | -27.36163 | 153.14116 | 1239 ft | 174 kts | 204° |
| 2026-05-09 03:31 | -27.37218 | 153.13510 | 1857 ft | 175 kts | 204° |
| 2026-05-09 03:32 | -27.38384 | 153.12868 | 2409 ft | 196 kts | 202° |
| 2026-05-09 03:32 | -27.39638 | 153.12181 | 2832 ft | 203 kts | 203° |
| 2026-05-09 03:32 | -27.40961 | 153.11637 | 2953 ft | 202 kts | 188° |
| 2026-05-09 03:32 | -27.42283 | 153.11517 | 2975 ft | 202 kts | 178° |
| 2026-05-09 03:33 | -27.43716 | 153.11578 | 2973 ft | 202 kts | 175° |
| 2026-05-09 03:33 | -27.45114 | 153.11690 | 2969 ft | 201 kts | 169° |
| 2026-05-09 03:33 | -27.46326 | 153.12376 | 2967 ft | 194 kts | 133° |
| 2026-05-09 03:33 | -27.47003 | 153.13599 | 2980 ft | 176 kts | 115° |
| 2026-05-09 03:34 | -27.47186 | 153.14890 | 2949 ft | 166 kts | 81° |
| 2026-05-09 03:34 | -27.46578 | 153.15961 | 2984 ft | 166 kts | 44° |
| 2026-05-09 03:34 | -27.45639 | 153.16729 | 2980 ft | 169 kts | 36° |
| 2026-05-09 03:34 | -27.44636 | 153.17406 | 2978 ft | 171 kts | 34° |
| 2026-05-09 03:35 | -27.43610 | 153.18075 | 2965 ft | 170 kts | 32° |
| 2026-05-09 03:35 | -27.42582 | 153.18747 | 2972 ft | 172 kts | 32° |
| 2026-05-09 03:35 | -27.41494 | 153.19454 | 2969 ft | 187 kts | 34° |
| 2026-05-09 03:35 | -27.40360 | 153.20200 | 2962 ft | 190 kts | 34° |
| 2026-05-09 03:36 | -27.39219 | 153.20951 | 2963 ft | 191 kts | 34° |
| 2026-05-09 03:36 | -27.38073 | 153.21703 | 2966 ft | 191 kts | 33° |
| 2026-05-09 03:36 | -27.36926 | 153.22463 | 2968 ft | 191 kts | 33° |
| 2026-05-09 03:36 | -27.35774 | 153.23216 | 2733 ft | 193 kts | 33° |
| 2026-05-09 03:37 | -27.34609 | 153.23973 | 2458 ft | 192 kts | 33° |
| 2026-05-09 03:37 | -27.33467 | 153.24718 | 2263 ft | 187 kts | 33° |
| 2026-05-09 03:37 | -27.32372 | 153.25429 | 2154 ft | 177 kts | 33° |
| 2026-05-09 03:37 | -27.31261 | 153.25978 | 1979 ft | 176 kts | 11° |
| 2026-05-09 03:38 | -27.30043 | 153.25924 | 1787 ft | 175 kts | 349° |
| 2026-05-09 03:38 | -27.28945 | 153.25335 | 1570 ft | 176 kts | 323° |
| 2026-05-09 03:38 | -27.28070 | 153.24396 | 1464 ft | 174 kts | 310° |
| 2026-05-09 03:38 | -27.27365 | 153.23285 | 1460 ft | 175 kts | 301° |
| 2026-05-09 03:39 | -27.26724 | 153.22139 | 1456 ft | 168 kts | 300° |
| 2026-05-09 03:39 | -27.26150 | 153.21073 | 1464 ft | 157 kts | 294° |
| 2026-05-09 03:39 | -27.25956 | 153.19902 | 1484 ft | 149 kts | 267° |
| 2026-05-09 03:39 | -27.25983 | 153.18781 | 1488 ft | 138 kts | 259° |
| 2026-05-09 03:40 | -27.26194 | 153.17747 | 1479 ft | 134 kts | 246° |
| 2026-05-09 03:40 | -27.26729 | 153.16934 | 1488 ft | 129 kts | 214° |
| 2026-05-09 03:40 | -27.27479 | 153.16395 | 1471 ft | 128 kts | 203° |
| 2026-05-09 03:40 | -27.28301 | 153.16006 | 1361 ft | 129 kts | 193° |
| 2026-05-09 03:41 | -27.29169 | 153.15774 | 1119 ft | 128 kts | 189° |
| 2026-05-09 03:41 | -27.30007 | 153.15448 | 895 ft | 128 kts | 204° |
| 2026-05-09 03:41 | -27.30771 | 153.14951 | 870 ft | 128 kts | 207° |
| 2026-05-09 03:41 | -27.31568 | 153.14485 | 867 ft | 129 kts | 199° |
| 2026-05-09 03:42 | -27.32384 | 153.14056 | 759 ft | 129 kts | 202° |
| 2026-05-09 03:42 | -27.33185 | 153.13593 | 591 ft | 129 kts | 206° |
| 2026-05-09 03:42 | -27.33981 | 153.13134 | 407 ft | 128 kts | 199° |
| 2026-05-09 03:42 | -27.34790 | 153.12682 | 275 ft | 132 kts | 204° |
| 2026-05-09 03:43 | -27.35601 | 153.12217 | 88 ft | 132 kts | 199° |
| 2026-05-09 03:43 | -27.36404 | 153.11774 | 25 ft | 113 kts | 205° |
| 2026-05-09 03:43 | -27.36930 | 153.11470 | 22 ft | 55 kts | 207° |
| 2026-05-09 03:43 | -27.37096 | 153.11381 | 23 ft | 1 kts | 199° |
| 2026-05-09 03:44 | -27.37200 | 153.11339 | 22 ft | 30 kts | 198° |
| 2026-05-09 03:44 | -27.37329 | 153.11334 | 22 ft | 0 kts | 175° |
| 2026-05-09 03:44 | -27.37338 | 153.11334 | 24 ft | 3 kts | 178° |
| 2026-05-09 03:44 | -27.37403 | 153.11333 | 22 ft | 15 kts | 176° |
| 2026-05-09 03:45 | -27.37505 | 153.11382 | 24 ft | 19 kts | 128° |
| 2026-05-09 03:45 | -27.37497 | 153.11463 | 23 ft | 7 kts | 37° |
| 2026-05-09 03:45 | -27.37429 | 153.11514 | 21 ft | 15 kts | 46° |
| 2026-05-09 03:45 | -27.37434 | 153.11632 | 26 ft | 18 kts | 115° |
| 2026-05-09 03:46 | -27.37503 | 153.11783 | 26 ft | 25 kts | 118° |
| 2026-05-09 03:46 | -27.37586 | 153.11974 | 24 ft | 29 kts | 114° |
| 2026-05-09 03:46 | -27.37685 | 153.12190 | 22 ft | 33 kts | 117° |
| 2026-05-09 03:46 | -27.37774 | 153.12381 | 23 ft | 21 kts | 117° |
| 2026-05-09 03:47 | -27.37845 | 153.12533 | 22 ft | 23 kts | 117° |
| 2026-05-09 03:47 | -27.37913 | 153.12692 | 24 ft | 23 kts | 118° |
| 2026-05-09 03:47 | -27.37986 | 153.12761 | 23 ft | 4 kts | 191° |
| 2026-05-09 03:47 | -27.38019 | 153.12747 | 21 ft | 7 kts | 204° |
| 2026-05-09 03:48 | -27.38082 | 153.12714 | 23 ft | 13 kts | 206° |
| 2026-05-09 03:48 | -27.38182 | 153.12656 | 23 ft | 19 kts | 206° |
| 2026-05-09 03:48 | -27.38317 | 153.12579 | 22 ft | 24 kts | 207° |
| 2026-05-09 03:48 | -27.38448 | 153.12484 | 25 ft | 19 kts | 249° |
| 2026-05-09 03:49 | -27.38434 | 153.12345 | 21 ft | 18 kts | 274° |
| 2026-05-09 03:49 | -27.38448 | 153.12278 | 24 ft | 7 kts | 235° |
| 2026-05-09 03:49 | -27.38483 | 153.12225 | 26 ft | 10 kts | 233° |
| 2026-05-09 03:49 | -27.38490 | 153.12190 | 25 ft | 4 kts | 271° |
| 2026-05-09 03:50 | -27.38485 | 153.12172 | 24 ft | 0 kts | 292° |
| 2026-05-09 03:50 | -27.38485 | 153.12171 | 24 ft | 0 kts | 292° |